<?xml version="1.0" encoding="UTF-8" standalone="yes"?>
<gpx
 xmlns="http://www.topografix.com/GPX/1/1"
 creator="OziExplorer Version 3955q - http://www.oziexplorer.com"
 version="1.1"
 xmlns:xsi="http://www.w3.org/2001/XMLSchema-instance"
 xsi:schemaLocation="http://www.topografix.com/GPX/1/1 http://www.topografix.com/GPX/1/1/gpx.xsd">
<metadata>
 <time>2013-06-16T14:54:54Z</time>
 <bounds minlat="31.757383" minlon="35.095313" maxlat="31.784243" maxlon="35.129489"/>
</metadata>
<trk>
 <name>Sataf-Tsuba-Eitan</name>
 <desc>sataf-tsuba-eitan</desc>
<trkseg>
<trkpt lat="31.7755890" lon="35.1265380">
<ele>718.230713</ele>
<time>2013-06-14T04:27:12.004Z</time>
</trkpt>
<trkpt lat="31.7755890" lon="35.1263190">
<ele>718.230713</ele>
<time>2013-06-14T04:27:47.998Z</time>
</trkpt>
<trkpt lat="31.7756580" lon="35.1261010">
<ele>717.773499</ele>
<time>2013-06-14T04:28:02.004Z</time>
</trkpt>
<trkpt lat="31.7757050" lon="35.1260320">
<ele>716.798157</ele>
<time>2013-06-14T04:28:17.003Z</time>
</trkpt>
<trkpt lat="31.7757330" lon="35.1259680">
<ele>717.285828</ele>
<time>2013-06-14T04:28:29.997Z</time>
</trkpt>
<trkpt lat="31.7758080" lon="35.1259060">
<ele>716.310486</ele>
<time>2013-06-14T04:28:36.002Z</time>
</trkpt>
<trkpt lat="31.7758750" lon="35.1259070">
<ele>715.365601</ele>
<time>2013-06-14T04:28:39.000Z</time>
</trkpt>
<trkpt lat="31.7759000" lon="35.1259140">
<ele>715.853333</ele>
<time>2013-06-14T04:28:40.002Z</time>
</trkpt>
<trkpt lat="31.7759260" lon="35.1259230">
<ele>714.877869</ele>
<time>2013-06-14T04:28:40.996Z</time>
</trkpt>
<trkpt lat="31.7759510" lon="35.1259370">
<ele>714.877869</ele>
<time>2013-06-14T04:28:41.998Z</time>
</trkpt>
<trkpt lat="31.7759750" lon="35.1259550">
<ele>714.877869</ele>
<time>2013-06-14T04:28:43.000Z</time>
</trkpt>
<trkpt lat="31.7760000" lon="35.1259750">
<ele>714.877869</ele>
<time>2013-06-14T04:28:44.003Z</time>
</trkpt>
<trkpt lat="31.7761700" lon="35.1260870">
<ele>712.957703</ele>
<time>2013-06-14T04:28:49.999Z</time>
</trkpt>
<trkpt lat="31.7765290" lon="35.1262960">
<ele>711.037476</ele>
<time>2013-06-14T04:29:02.000Z</time>
</trkpt>
<trkpt lat="31.7771890" lon="35.1267040">
<ele>707.684631</ele>
<time>2013-06-14T04:29:15.996Z</time>
</trkpt>
<trkpt lat="31.7777290" lon="35.1272370">
<ele>705.246277</ele>
<time>2013-06-14T04:29:27.004Z</time>
</trkpt>
<trkpt lat="31.7777670" lon="35.1273110">
<ele>704.789063</ele>
<time>2013-06-14T04:29:27.997Z</time>
</trkpt>
<trkpt lat="31.7777940" lon="35.1273910">
<ele>704.301331</ele>
<time>2013-06-14T04:29:29.000Z</time>
</trkpt>
<trkpt lat="31.7778080" lon="35.1274730">
<ele>704.301331</ele>
<time>2013-06-14T04:29:30.002Z</time>
</trkpt>
<trkpt lat="31.7778090" lon="35.1275580">
<ele>703.813721</ele>
<time>2013-06-14T04:29:31.004Z</time>
</trkpt>
<trkpt lat="31.7778030" lon="35.1276450">
<ele>703.325989</ele>
<time>2013-06-14T04:29:31.998Z</time>
</trkpt>
<trkpt lat="31.7777940" lon="35.1277310">
<ele>702.868774</ele>
<time>2013-06-14T04:29:33.000Z</time>
</trkpt>
<trkpt lat="31.7777300" lon="35.1280840">
<ele>701.405762</ele>
<time>2013-06-14T04:29:37.000Z</time>
</trkpt>
<trkpt lat="31.7776990" lon="35.1281690">
<ele>701.405762</ele>
<time>2013-06-14T04:29:38.003Z</time>
</trkpt>
<trkpt lat="31.7776580" lon="35.1282530">
<ele>700.948547</ele>
<time>2013-06-14T04:29:38.996Z</time>
</trkpt>
<trkpt lat="31.7775320" lon="35.1284960">
<ele>699.485474</ele>
<time>2013-06-14T04:29:42.003Z</time>
</trkpt>
<trkpt lat="31.7774110" lon="35.1288930">
<ele>698.052917</ele>
<time>2013-06-14T04:29:50.004Z</time>
</trkpt>
<trkpt lat="31.7774420" lon="35.1292690">
<ele>698.540649</ele>
<time>2013-06-14T04:30:00.000Z</time>
</trkpt>
<trkpt lat="31.7775610" lon="35.1292900">
<ele>698.540649</ele>
<time>2013-06-14T04:30:02.998Z</time>
</trkpt>
<trkpt lat="31.7776030" lon="35.1292790">
<ele>698.540649</ele>
<time>2013-06-14T04:30:04.000Z</time>
</trkpt>
<trkpt lat="31.7776430" lon="35.1292600">
<ele>698.540649</ele>
<time>2013-06-14T04:30:05.003Z</time>
</trkpt>
<trkpt lat="31.7776820" lon="35.1292390">
<ele>698.540649</ele>
<time>2013-06-14T04:30:05.996Z</time>
</trkpt>
<trkpt lat="31.7777190" lon="35.1292130">
<ele>698.052917</ele>
<time>2013-06-14T04:30:06.998Z</time>
</trkpt>
<trkpt lat="31.7777520" lon="35.1291830">
<ele>698.052917</ele>
<time>2013-06-14T04:30:08.001Z</time>
</trkpt>
<trkpt lat="31.7777780" lon="35.1291550">
<ele>697.565308</ele>
<time>2013-06-14T04:30:09.003Z</time>
</trkpt>
<trkpt lat="31.7777980" lon="35.1291300">
<ele>697.565308</ele>
<time>2013-06-14T04:30:09.996Z</time>
</trkpt>
<trkpt lat="31.7778720" lon="35.1289220">
<ele>697.565308</ele>
<time>2013-06-14T04:30:21.004Z</time>
</trkpt>
<trkpt lat="31.7780700" lon="35.1284350">
<ele>694.700134</ele>
<time>2013-06-14T04:30:36.003Z</time>
</trkpt>
<trkpt lat="31.7783170" lon="35.1275740">
<ele>687.964111</ele>
<time>2013-06-14T04:30:50.000Z</time>
</trkpt>
<trkpt lat="31.7783310" lon="35.1274930">
<ele>687.476379</ele>
<time>2013-06-14T04:30:51.002Z</time>
</trkpt>
<trkpt lat="31.7783740" lon="35.1270150">
<ele>684.123596</ele>
<time>2013-06-14T04:30:55.996Z</time>
</trkpt>
<trkpt lat="31.7783020" lon="35.1265880">
<ele>681.715698</ele>
<time>2013-06-14T04:30:59.996Z</time>
</trkpt>
<trkpt lat="31.7781650" lon="35.1261660">
<ele>678.362915</ele>
<time>2013-06-14T04:31:03.996Z</time>
</trkpt>
<trkpt lat="31.7779660" lon="35.1257540">
<ele>674.491882</ele>
<time>2013-06-14T04:31:07.997Z</time>
</trkpt>
<trkpt lat="31.7779060" lon="35.1256600">
<ele>674.491882</ele>
<time>2013-06-14T04:31:08.999Z</time>
</trkpt>
<trkpt lat="31.7776830" lon="35.1252950">
<ele>670.194275</ele>
<time>2013-06-14T04:31:12.999Z</time>
</trkpt>
<trkpt lat="31.7774690" lon="35.1249250">
<ele>666.323303</ele>
<time>2013-06-14T04:31:17.000Z</time>
</trkpt>
<trkpt lat="31.7773810" lon="35.1247450">
<ele>664.403076</ele>
<time>2013-06-14T04:31:19.004Z</time>
</trkpt>
<trkpt lat="31.7773550" lon="35.1246610">
<ele>663.915344</ele>
<time>2013-06-14T04:31:19.998Z</time>
</trkpt>
<trkpt lat="31.7773380" lon="35.1245790">
<ele>663.458130</ele>
<time>2013-06-14T04:31:21.000Z</time>
</trkpt>
<trkpt lat="31.7773250" lon="35.1245020">
<ele>662.970520</ele>
<time>2013-06-14T04:31:22.002Z</time>
</trkpt>
<trkpt lat="31.7773180" lon="35.1244310">
<ele>661.995117</ele>
<time>2013-06-14T04:31:22.996Z</time>
</trkpt>
<trkpt lat="31.7773180" lon="35.1243660">
<ele>661.507446</ele>
<time>2013-06-14T04:31:23.998Z</time>
</trkpt>
<trkpt lat="31.7773260" lon="35.1243080">
<ele>661.050232</ele>
<time>2013-06-14T04:31:25.000Z</time>
</trkpt>
<trkpt lat="31.7773400" lon="35.1242560">
<ele>660.562561</ele>
<time>2013-06-14T04:31:26.003Z</time>
</trkpt>
<trkpt lat="31.7773580" lon="35.1242150">
<ele>660.074890</ele>
<time>2013-06-14T04:31:26.996Z</time>
</trkpt>
<trkpt lat="31.7773800" lon="35.1241830">
<ele>659.587219</ele>
<time>2013-06-14T04:31:27.998Z</time>
</trkpt>
<trkpt lat="31.7774040" lon="35.1241600">
<ele>658.642273</ele>
<time>2013-06-14T04:31:29.001Z</time>
</trkpt>
<trkpt lat="31.7774270" lon="35.1241450">
<ele>658.642273</ele>
<time>2013-06-14T04:31:30.003Z</time>
</trkpt>
<trkpt lat="31.7776090" lon="35.1241870">
<ele>657.209717</ele>
<time>2013-06-14T04:31:37.001Z</time>
</trkpt>
<trkpt lat="31.7776440" lon="35.1242240">
<ele>657.209717</ele>
<time>2013-06-14T04:31:38.004Z</time>
</trkpt>
<trkpt lat="31.7780130" lon="35.1246370">
<ele>653.826538</ele>
<time>2013-06-14T04:31:46.004Z</time>
</trkpt>
<trkpt lat="31.7781260" lon="35.1247620">
<ele>652.881592</ele>
<time>2013-06-14T04:31:48.000Z</time>
</trkpt>
<trkpt lat="31.7781670" lon="35.1248310">
<ele>652.393860</ele>
<time>2013-06-14T04:31:49.002Z</time>
</trkpt>
<trkpt lat="31.7781920" lon="35.1249080">
<ele>652.393860</ele>
<time>2013-06-14T04:31:49.996Z</time>
</trkpt>
<trkpt lat="31.7782040" lon="35.1249810">
<ele>652.881592</ele>
<time>2013-06-14T04:31:50.998Z</time>
</trkpt>
<trkpt lat="31.7782160" lon="35.1250440">
<ele>652.393860</ele>
<time>2013-06-14T04:31:52.000Z</time>
</trkpt>
<trkpt lat="31.7782300" lon="35.1251000">
<ele>652.393860</ele>
<time>2013-06-14T04:31:53.003Z</time>
</trkpt>
<trkpt lat="31.7782810" lon="35.1253330">
<ele>653.338806</ele>
<time>2013-06-14T04:32:01.997Z</time>
</trkpt>
<trkpt lat="31.7782850" lon="35.1253580">
<ele>653.338806</ele>
<time>2013-06-14T04:32:09.997Z</time>
</trkpt>
<trkpt lat="31.7783250" lon="35.1254240">
<ele>653.338806</ele>
<time>2013-06-14T04:32:13.998Z</time>
</trkpt>
<trkpt lat="31.7783340" lon="35.1254490">
<ele>653.338806</ele>
<time>2013-06-14T04:32:15.000Z</time>
</trkpt>
<trkpt lat="31.7783460" lon="35.1254720">
<ele>653.338806</ele>
<time>2013-06-14T04:32:16.002Z</time>
</trkpt>
<trkpt lat="31.7785350" lon="35.1258340">
<ele>653.826538</ele>
<time>2013-06-14T04:32:31.001Z</time>
</trkpt>
<trkpt lat="31.7788080" lon="35.1262190">
<ele>654.314148</ele>
<time>2013-06-14T04:32:47.003Z</time>
</trkpt>
<trkpt lat="31.7789200" lon="35.1266380">
<ele>654.801880</ele>
<time>2013-06-14T04:33:00.999Z</time>
</trkpt>
<trkpt lat="31.7789730" lon="35.1269880">
<ele>655.746704</ele>
<time>2013-06-14T04:33:14.996Z</time>
</trkpt>
<trkpt lat="31.7789760" lon="35.1270440">
<ele>656.234375</ele>
<time>2013-06-14T04:33:18.003Z</time>
</trkpt>
<trkpt lat="31.7789810" lon="35.1270850">
<ele>656.234375</ele>
<time>2013-06-14T04:33:19.999Z</time>
</trkpt>
<trkpt lat="31.7789890" lon="35.1271070">
<ele>656.722107</ele>
<time>2013-06-14T04:33:21.001Z</time>
</trkpt>
<trkpt lat="31.7789930" lon="35.1271310">
<ele>656.234375</ele>
<time>2013-06-14T04:33:22.003Z</time>
</trkpt>
<trkpt lat="31.7789940" lon="35.1271550">
<ele>656.722107</ele>
<time>2013-06-14T04:33:22.997Z</time>
</trkpt>
<trkpt lat="31.7789960" lon="35.1271810">
<ele>656.234375</ele>
<time>2013-06-14T04:33:23.999Z</time>
</trkpt>
<trkpt lat="31.7789970" lon="35.1274860">
<ele>657.666931</ele>
<time>2013-06-14T04:33:37.002Z</time>
</trkpt>
<trkpt lat="31.7790230" lon="35.1277880">
<ele>658.642273</ele>
<time>2013-06-14T04:33:50.999Z</time>
</trkpt>
<trkpt lat="31.7791840" lon="35.1281840">
<ele>659.587219</ele>
<time>2013-06-14T04:34:07.000Z</time>
</trkpt>
<trkpt lat="31.7793680" lon="35.1284840">
<ele>660.074890</ele>
<time>2013-06-14T04:34:23.002Z</time>
</trkpt>
<trkpt lat="31.7796080" lon="35.1288160">
<ele>661.995117</ele>
<time>2013-06-14T04:34:39.996Z</time>
</trkpt>
<trkpt lat="31.7797500" lon="35.1290920">
<ele>663.915344</ele>
<time>2013-06-14T04:34:54.002Z</time>
</trkpt>
<trkpt lat="31.7797610" lon="35.1291170">
<ele>663.915344</ele>
<time>2013-06-14T04:34:55.998Z</time>
</trkpt>
<trkpt lat="31.7797940" lon="35.1291450">
<ele>664.403076</ele>
<time>2013-06-14T04:34:59.998Z</time>
</trkpt>
<trkpt lat="31.7798090" lon="35.1291460">
<ele>664.403076</ele>
<time>2013-06-14T04:35:01.000Z</time>
</trkpt>
<trkpt lat="31.7798480" lon="35.1291310">
<ele>663.915344</ele>
<time>2013-06-14T04:35:02.996Z</time>
</trkpt>
<trkpt lat="31.7801660" lon="35.1289010">
<ele>664.403076</ele>
<time>2013-06-14T04:35:18.997Z</time>
</trkpt>
<trkpt lat="31.7802180" lon="35.1288400">
<ele>665.835571</ele>
<time>2013-06-14T04:35:24.000Z</time>
</trkpt>
<trkpt lat="31.7803050" lon="35.1289680">
<ele>665.835571</ele>
<time>2013-06-14T04:36:50.996Z</time>
</trkpt>
<trkpt lat="31.7804230" lon="35.1291930">
<ele>666.810974</ele>
<time>2013-06-14T04:37:02.997Z</time>
</trkpt>
<trkpt lat="31.7805980" lon="35.1294890">
<ele>668.243469</ele>
<time>2013-06-14T04:37:17.996Z</time>
</trkpt>
<trkpt lat="31.7806590" lon="35.1294770">
<ele>668.243469</ele>
<time>2013-06-14T04:37:21.003Z</time>
</trkpt>
<trkpt lat="31.7806730" lon="35.1294560">
<ele>668.243469</ele>
<time>2013-06-14T04:37:21.996Z</time>
</trkpt>
<trkpt lat="31.7806760" lon="35.1294320">
<ele>668.731201</ele>
<time>2013-06-14T04:37:22.999Z</time>
</trkpt>
<trkpt lat="31.7806720" lon="35.1294100">
<ele>669.218933</ele>
<time>2013-06-14T04:37:24.001Z</time>
</trkpt>
<trkpt lat="31.7806670" lon="35.1293880">
<ele>669.218933</ele>
<time>2013-06-14T04:37:25.003Z</time>
</trkpt>
<trkpt lat="31.7806580" lon="35.1293690">
<ele>669.706543</ele>
<time>2013-06-14T04:37:25.997Z</time>
</trkpt>
<trkpt lat="31.7806460" lon="35.1293480">
<ele>669.706543</ele>
<time>2013-06-14T04:37:26.999Z</time>
</trkpt>
<trkpt lat="31.7806330" lon="35.1293220">
<ele>669.706543</ele>
<time>2013-06-14T04:37:28.001Z</time>
</trkpt>
<trkpt lat="31.7804610" lon="35.1289010">
<ele>671.139099</ele>
<time>2013-06-14T04:37:44.003Z</time>
</trkpt>
<trkpt lat="31.7803230" lon="35.1284730">
<ele>670.651428</ele>
<time>2013-06-14T04:38:00.004Z</time>
</trkpt>
<trkpt lat="31.7803050" lon="35.1284290">
<ele>670.194275</ele>
<time>2013-06-14T04:38:00.997Z</time>
</trkpt>
<trkpt lat="31.7802840" lon="35.1283800">
<ele>669.706543</ele>
<time>2013-06-14T04:38:02.000Z</time>
</trkpt>
<trkpt lat="31.7801700" lon="35.1280480">
<ele>671.139099</ele>
<time>2013-06-14T04:38:12.998Z</time>
</trkpt>
<trkpt lat="31.7800140" lon="35.1276410">
<ele>672.571716</ele>
<time>2013-06-14T04:38:29.000Z</time>
</trkpt>
<trkpt lat="31.7799370" lon="35.1272280">
<ele>674.491882</ele>
<time>2013-06-14T04:38:46.003Z</time>
</trkpt>
<trkpt lat="31.7798870" lon="35.1268660">
<ele>676.412170</ele>
<time>2013-06-14T04:39:02.998Z</time>
</trkpt>
<trkpt lat="31.7799130" lon="35.1266920">
<ele>679.795471</ele>
<time>2013-06-14T04:39:14.999Z</time>
</trkpt>
<trkpt lat="31.7799740" lon="35.1264690">
<ele>681.715698</ele>
<time>2013-06-14T04:39:32.003Z</time>
</trkpt>
<trkpt lat="31.7800450" lon="35.1262550">
<ele>683.635864</ele>
<time>2013-06-14T04:39:48.004Z</time>
</trkpt>
<trkpt lat="31.7800610" lon="35.1260230">
<ele>686.043884</ele>
<time>2013-06-14T04:40:02.001Z</time>
</trkpt>
<trkpt lat="31.7799890" lon="35.1256540">
<ele>688.451721</ele>
<time>2013-06-14T04:40:21.000Z</time>
</trkpt>
<trkpt lat="31.7800760" lon="35.1253560">
<ele>689.396667</ele>
<time>2013-06-14T04:40:38.004Z</time>
</trkpt>
<trkpt lat="31.7802340" lon="35.1251430">
<ele>689.884277</ele>
<time>2013-06-14T04:40:53.003Z</time>
</trkpt>
<trkpt lat="31.7805120" lon="35.1249420">
<ele>691.804565</ele>
<time>2013-06-14T04:41:13.004Z</time>
</trkpt>
<trkpt lat="31.7806580" lon="35.1248940">
<ele>693.724792</ele>
<time>2013-06-14T04:41:24.003Z</time>
</trkpt>
<trkpt lat="31.7808140" lon="35.1248470">
<ele>697.077576</ele>
<time>2013-06-14T04:42:05.000Z</time>
</trkpt>
<trkpt lat="31.7808960" lon="35.1248250">
<ele>697.565308</ele>
<time>2013-06-14T04:42:15.998Z</time>
</trkpt>
<trkpt lat="31.7810020" lon="35.1247750">
<ele>698.052917</ele>
<time>2013-06-14T04:42:26.997Z</time>
</trkpt>
<trkpt lat="31.7812680" lon="35.1246360">
<ele>699.485474</ele>
<time>2013-06-14T04:42:45.003Z</time>
</trkpt>
<trkpt lat="31.7815730" lon="35.1244350">
<ele>700.460938</ele>
<time>2013-06-14T04:43:04.996Z</time>
</trkpt>
<trkpt lat="31.7818070" lon="35.1243110">
<ele>701.893433</ele>
<time>2013-06-14T04:43:21.999Z</time>
</trkpt>
<trkpt lat="31.7818500" lon="35.1242770">
<ele>702.381104</ele>
<time>2013-06-14T04:43:36.998Z</time>
</trkpt>
<trkpt lat="31.7818950" lon="35.1242100">
<ele>702.381104</ele>
<time>2013-06-14T04:43:59.998Z</time>
</trkpt>
<trkpt lat="31.7820030" lon="35.1239800">
<ele>699.028320</ele>
<time>2013-06-14T04:44:11.999Z</time>
</trkpt>
<trkpt lat="31.7820480" lon="35.1235990">
<ele>695.645081</ele>
<time>2013-06-14T04:44:22.004Z</time>
</trkpt>
<trkpt lat="31.7819950" lon="35.1234000">
<ele>695.645081</ele>
<time>2013-06-14T04:44:26.998Z</time>
</trkpt>
<trkpt lat="31.7819670" lon="35.1233910">
<ele>695.645081</ele>
<time>2013-06-14T04:44:28.000Z</time>
</trkpt>
<trkpt lat="31.7819250" lon="35.1233920">
<ele>695.157349</ele>
<time>2013-06-14T04:44:29.003Z</time>
</trkpt>
<trkpt lat="31.7818260" lon="35.1233970">
<ele>694.212524</ele>
<time>2013-06-14T04:44:30.998Z</time>
</trkpt>
<trkpt lat="31.7817360" lon="35.1233970">
<ele>694.212524</ele>
<time>2013-06-14T04:44:33.003Z</time>
</trkpt>
<trkpt lat="31.7816940" lon="35.1233880">
<ele>693.724792</ele>
<time>2013-06-14T04:44:33.996Z</time>
</trkpt>
<trkpt lat="31.7812600" lon="35.1233220">
<ele>691.804565</ele>
<time>2013-06-14T04:44:45.997Z</time>
</trkpt>
<trkpt lat="31.7808960" lon="35.1232470">
<ele>692.779907</ele>
<time>2013-06-14T04:44:57.998Z</time>
</trkpt>
<trkpt lat="31.7805670" lon="35.1230400">
<ele>693.724792</ele>
<time>2013-06-14T04:45:12.997Z</time>
</trkpt>
<trkpt lat="31.7801910" lon="35.1226930">
<ele>691.804565</ele>
<time>2013-06-14T04:45:28.999Z</time>
</trkpt>
<trkpt lat="31.7800310" lon="35.1224030">
<ele>692.779907</ele>
<time>2013-06-14T04:45:39.004Z</time>
</trkpt>
<trkpt lat="31.7800150" lon="35.1219860">
<ele>693.724792</ele>
<time>2013-06-14T04:45:53.001Z</time>
</trkpt>
<trkpt lat="31.7800720" lon="35.1214390">
<ele>693.724792</ele>
<time>2013-06-14T04:46:10.004Z</time>
</trkpt>
<trkpt lat="31.7798910" lon="35.1212050">
<ele>694.212524</ele>
<time>2013-06-14T04:46:21.003Z</time>
</trkpt>
<trkpt lat="31.7795630" lon="35.1209790">
<ele>696.132690</ele>
<time>2013-06-14T04:46:37.998Z</time>
</trkpt>
<trkpt lat="31.7793470" lon="35.1207910">
<ele>698.540649</ele>
<time>2013-06-14T04:46:51.001Z</time>
</trkpt>
<trkpt lat="31.7791170" lon="35.1205240">
<ele>699.485474</ele>
<time>2013-06-14T04:47:06.000Z</time>
</trkpt>
<trkpt lat="31.7789160" lon="35.1201880">
<ele>699.485474</ele>
<time>2013-06-14T04:47:20.999Z</time>
</trkpt>
<trkpt lat="31.7788110" lon="35.1197960">
<ele>700.948547</ele>
<time>2013-06-14T04:47:35.998Z</time>
</trkpt>
<trkpt lat="31.7787560" lon="35.1194130">
<ele>701.893433</ele>
<time>2013-06-14T04:47:50.997Z</time>
</trkpt>
<trkpt lat="31.7788120" lon="35.1190290">
<ele>702.381104</ele>
<time>2013-06-14T04:48:04.000Z</time>
</trkpt>
<trkpt lat="31.7789430" lon="35.1185590">
<ele>703.325989</ele>
<time>2013-06-14T04:48:21.004Z</time>
</trkpt>
<trkpt lat="31.7791490" lon="35.1183340">
<ele>704.789063</ele>
<time>2013-06-14T04:48:32.996Z</time>
</trkpt>
<trkpt lat="31.7794640" lon="35.1182550">
<ele>705.764404</ele>
<time>2013-06-14T04:48:47.002Z</time>
</trkpt>
<trkpt lat="31.7798290" lon="35.1182110">
<ele>707.196960</ele>
<time>2013-06-14T04:49:03.003Z</time>
</trkpt>
<trkpt lat="31.7802160" lon="35.1181840">
<ele>707.196960</ele>
<time>2013-06-14T04:49:18.002Z</time>
</trkpt>
<trkpt lat="31.7806700" lon="35.1181680">
<ele>707.684631</ele>
<time>2013-06-14T04:49:33.001Z</time>
</trkpt>
<trkpt lat="31.7810170" lon="35.1180550">
<ele>707.684631</ele>
<time>2013-06-14T04:49:45.002Z</time>
</trkpt>
<trkpt lat="31.7812500" lon="35.1177810">
<ele>707.196960</ele>
<time>2013-06-14T04:49:57.003Z</time>
</trkpt>
<trkpt lat="31.7813240" lon="35.1176380">
<ele>705.246277</ele>
<time>2013-06-14T04:50:01.003Z</time>
</trkpt>
<trkpt lat="31.7813580" lon="35.1175960">
<ele>704.789063</ele>
<time>2013-06-14T04:50:01.997Z</time>
</trkpt>
<trkpt lat="31.7813960" lon="35.1175650">
<ele>704.301331</ele>
<time>2013-06-14T04:50:02.999Z</time>
</trkpt>
<trkpt lat="31.7814310" lon="35.1175460">
<ele>704.301331</ele>
<time>2013-06-14T04:50:04.001Z</time>
</trkpt>
<trkpt lat="31.7814560" lon="35.1175400">
<ele>704.301331</ele>
<time>2013-06-14T04:50:05.004Z</time>
</trkpt>
<trkpt lat="31.7816610" lon="35.1174770">
<ele>707.196960</ele>
<time>2013-06-14T04:50:16.996Z</time>
</trkpt>
<trkpt lat="31.7818850" lon="35.1173810">
<ele>708.629517</ele>
<time>2013-06-14T04:50:32.004Z</time>
</trkpt>
<trkpt lat="31.7821170" lon="35.1172860">
<ele>711.037476</ele>
<time>2013-06-14T04:50:47.996Z</time>
</trkpt>
<trkpt lat="31.7822370" lon="35.1172340">
<ele>711.525085</ele>
<time>2013-06-14T04:50:55.997Z</time>
</trkpt>
<trkpt lat="31.7822970" lon="35.1172080">
<ele>711.525085</ele>
<time>2013-06-14T04:50:59.997Z</time>
</trkpt>
<trkpt lat="31.7825070" lon="35.1171410">
<ele>713.933044</ele>
<time>2013-06-14T04:51:13.000Z</time>
</trkpt>
<trkpt lat="31.7827190" lon="35.1170470">
<ele>715.853333</ele>
<time>2013-06-14T04:51:27.999Z</time>
</trkpt>
<trkpt lat="31.7828610" lon="35.1167570">
<ele>716.310486</ele>
<time>2013-06-14T04:51:41.996Z</time>
</trkpt>
<trkpt lat="31.7830470" lon="35.1164130">
<ele>715.853333</ele>
<time>2013-06-14T04:51:56.002Z</time>
</trkpt>
<trkpt lat="31.7832240" lon="35.1161830">
<ele>718.718384</ele>
<time>2013-06-14T04:52:09.998Z</time>
</trkpt>
<trkpt lat="31.7832440" lon="35.1161550">
<ele>718.230713</ele>
<time>2013-06-14T04:52:12.003Z</time>
</trkpt>
<trkpt lat="31.7832500" lon="35.1161390">
<ele>718.718384</ele>
<time>2013-06-14T04:52:12.996Z</time>
</trkpt>
<trkpt lat="31.7834280" lon="35.1159320">
<ele>721.126282</ele>
<time>2013-06-14T04:52:30.000Z</time>
</trkpt>
<trkpt lat="31.7835330" lon="35.1158450">
<ele>722.558899</ele>
<time>2013-06-14T04:52:40.999Z</time>
</trkpt>
<trkpt lat="31.7836590" lon="35.1156270">
<ele>724.021912</ele>
<time>2013-06-14T04:52:57.000Z</time>
</trkpt>
<trkpt lat="31.7838100" lon="35.1153950">
<ele>726.399353</ele>
<time>2013-06-14T04:53:14.004Z</time>
</trkpt>
<trkpt lat="31.7839700" lon="35.1151530">
<ele>726.887085</ele>
<time>2013-06-14T04:53:30.998Z</time>
</trkpt>
<trkpt lat="31.7840340" lon="35.1150730">
<ele>727.374695</ele>
<time>2013-06-14T04:53:37.003Z</time>
</trkpt>
<trkpt lat="31.7840890" lon="35.1149660">
<ele>727.862427</ele>
<time>2013-06-14T04:53:44.002Z</time>
</trkpt>
<trkpt lat="31.7841660" lon="35.1148570">
<ele>728.350098</ele>
<time>2013-06-14T04:53:52.996Z</time>
</trkpt>
<trkpt lat="31.7842080" lon="35.1147900">
<ele>728.807312</ele>
<time>2013-06-14T04:54:28.999Z</time>
</trkpt>
<trkpt lat="31.7842360" lon="35.1147140">
<ele>728.807312</ele>
<time>2013-06-14T04:54:53.001Z</time>
</trkpt>
<trkpt lat="31.7842420" lon="35.1146780">
<ele>729.294922</ele>
<time>2013-06-14T04:54:54.996Z</time>
</trkpt>
<trkpt lat="31.7842430" lon="35.1146340">
<ele>729.294922</ele>
<time>2013-06-14T04:54:57.001Z</time>
</trkpt>
<trkpt lat="31.7842310" lon="35.1145860">
<ele>728.807312</ele>
<time>2013-06-14T04:54:58.997Z</time>
</trkpt>
<trkpt lat="31.7842060" lon="35.1145530">
<ele>728.807312</ele>
<time>2013-06-14T04:55:01.001Z</time>
</trkpt>
<trkpt lat="31.7839630" lon="35.1146090">
<ele>727.374695</ele>
<time>2013-06-14T04:55:12.000Z</time>
</trkpt>
<trkpt lat="31.7837520" lon="35.1149740">
<ele>724.966797</ele>
<time>2013-06-14T04:55:26.999Z</time>
</trkpt>
<trkpt lat="31.7837390" lon="35.1150160">
<ele>725.454529</ele>
<time>2013-06-14T04:56:02.000Z</time>
</trkpt>
<trkpt lat="31.7837230" lon="35.1150490">
<ele>724.966797</ele>
<time>2013-06-14T04:56:04.998Z</time>
</trkpt>
<trkpt lat="31.7836950" lon="35.1150410">
<ele>724.966797</ele>
<time>2013-06-14T04:56:07.002Z</time>
</trkpt>
<trkpt lat="31.7836750" lon="35.1150290">
<ele>724.966797</ele>
<time>2013-06-14T04:56:07.996Z</time>
</trkpt>
<trkpt lat="31.7835720" lon="35.1149410">
<ele>724.479065</ele>
<time>2013-06-14T04:56:12.998Z</time>
</trkpt>
<trkpt lat="31.7835690" lon="35.1149220">
<ele>724.479065</ele>
<time>2013-06-14T04:56:14.001Z</time>
</trkpt>
<trkpt lat="31.7835780" lon="35.1148590">
<ele>724.966797</ele>
<time>2013-06-14T04:56:16.999Z</time>
</trkpt>
<trkpt lat="31.7834380" lon="35.1146250">
<ele>726.887085</ele>
<time>2013-06-14T04:56:34.002Z</time>
</trkpt>
<trkpt lat="31.7833440" lon="35.1146100">
<ele>728.350098</ele>
<time>2013-06-14T04:56:42.003Z</time>
</trkpt>
<trkpt lat="31.7830480" lon="35.1145370">
<ele>732.647766</ele>
<time>2013-06-14T04:57:06.998Z</time>
</trkpt>
<trkpt lat="31.7828370" lon="35.1148140">
<ele>731.215210</ele>
<time>2013-06-14T04:57:21.004Z</time>
</trkpt>
<trkpt lat="31.7828120" lon="35.1148510">
<ele>731.215210</ele>
<time>2013-06-14T04:57:21.997Z</time>
</trkpt>
<trkpt lat="31.7827820" lon="35.1148850">
<ele>730.727478</ele>
<time>2013-06-14T04:57:23.000Z</time>
</trkpt>
<trkpt lat="31.7827480" lon="35.1149190">
<ele>730.727478</ele>
<time>2013-06-14T04:57:24.002Z</time>
</trkpt>
<trkpt lat="31.7826680" lon="35.1149930">
<ele>729.782654</ele>
<time>2013-06-14T04:57:25.998Z</time>
</trkpt>
<trkpt lat="31.7826220" lon="35.1150260">
<ele>728.807312</ele>
<time>2013-06-14T04:57:27.000Z</time>
</trkpt>
<trkpt lat="31.7825720" lon="35.1150580">
<ele>728.350098</ele>
<time>2013-06-14T04:57:28.002Z</time>
</trkpt>
<trkpt lat="31.7825160" lon="35.1150870">
<ele>727.862427</ele>
<time>2013-06-14T04:57:28.996Z</time>
</trkpt>
<trkpt lat="31.7824550" lon="35.1151170">
<ele>727.374695</ele>
<time>2013-06-14T04:57:29.998Z</time>
</trkpt>
<trkpt lat="31.7822710" lon="35.1151870">
<ele>726.399353</ele>
<time>2013-06-14T04:57:32.996Z</time>
</trkpt>
<trkpt lat="31.7821430" lon="35.1152150">
<ele>725.454529</ele>
<time>2013-06-14T04:57:35.001Z</time>
</trkpt>
<trkpt lat="31.7820140" lon="35.1152340">
<ele>724.479065</ele>
<time>2013-06-14T04:57:36.996Z</time>
</trkpt>
<trkpt lat="31.7815230" lon="35.1152790">
<ele>720.638672</ele>
<time>2013-06-14T04:57:44.004Z</time>
</trkpt>
<trkpt lat="31.7810060" lon="35.1153060">
<ele>717.285828</ele>
<time>2013-06-14T04:57:51.002Z</time>
</trkpt>
<trkpt lat="31.7809350" lon="35.1153030">
<ele>717.285828</ele>
<time>2013-06-14T04:57:52.004Z</time>
</trkpt>
<trkpt lat="31.7807230" lon="35.1152730">
<ele>716.310486</ele>
<time>2013-06-14T04:57:55.002Z</time>
</trkpt>
<trkpt lat="31.7806550" lon="35.1152460">
<ele>716.310486</ele>
<time>2013-06-14T04:57:55.996Z</time>
</trkpt>
<trkpt lat="31.7805890" lon="35.1152150">
<ele>716.310486</ele>
<time>2013-06-14T04:57:56.998Z</time>
</trkpt>
<trkpt lat="31.7805270" lon="35.1151760">
<ele>716.310486</ele>
<time>2013-06-14T04:57:58.000Z</time>
</trkpt>
<trkpt lat="31.7804670" lon="35.1151290">
<ele>715.853333</ele>
<time>2013-06-14T04:57:59.003Z</time>
</trkpt>
<trkpt lat="31.7804130" lon="35.1150750">
<ele>715.365601</ele>
<time>2013-06-14T04:57:59.996Z</time>
</trkpt>
<trkpt lat="31.7803640" lon="35.1150160">
<ele>714.877869</ele>
<time>2013-06-14T04:58:00.998Z</time>
</trkpt>
<trkpt lat="31.7803200" lon="35.1149580">
<ele>715.365601</ele>
<time>2013-06-14T04:58:02.001Z</time>
</trkpt>
<trkpt lat="31.7801980" lon="35.1147840">
<ele>714.877869</ele>
<time>2013-06-14T04:58:04.999Z</time>
</trkpt>
<trkpt lat="31.7801670" lon="35.1147220">
<ele>714.877869</ele>
<time>2013-06-14T04:58:06.001Z</time>
</trkpt>
<trkpt lat="31.7798410" lon="35.1140400">
<ele>712.469971</ele>
<time>2013-06-14T04:58:18.002Z</time>
</trkpt>
<trkpt lat="31.7795960" lon="35.1135230">
<ele>709.117188</ele>
<time>2013-06-14T04:58:26.996Z</time>
</trkpt>
<trkpt lat="31.7794830" lon="35.1132700">
<ele>707.196960</ele>
<time>2013-06-14T04:58:30.996Z</time>
</trkpt>
<trkpt lat="31.7794600" lon="35.1132010">
<ele>706.709290</ele>
<time>2013-06-14T04:58:31.999Z</time>
</trkpt>
<trkpt lat="31.7794240" lon="35.1130560">
<ele>705.246277</ele>
<time>2013-06-14T04:58:34.003Z</time>
</trkpt>
<trkpt lat="31.7794100" lon="35.1129150">
<ele>704.301331</ele>
<time>2013-06-14T04:58:35.999Z</time>
</trkpt>
<trkpt lat="31.7794110" lon="35.1128550">
<ele>704.789063</ele>
<time>2013-06-14T04:58:37.001Z</time>
</trkpt>
<trkpt lat="31.7795210" lon="35.1121960">
<ele>701.405762</ele>
<time>2013-06-14T04:58:49.002Z</time>
</trkpt>
<trkpt lat="31.7796020" lon="35.1115210">
<ele>698.052917</ele>
<time>2013-06-14T04:58:58.999Z</time>
</trkpt>
<trkpt lat="31.7796960" lon="35.1109960">
<ele>695.157349</ele>
<time>2013-06-14T04:59:05.997Z</time>
</trkpt>
<trkpt lat="31.7797300" lon="35.1106940">
<ele>693.237061</ele>
<time>2013-06-14T04:59:09.997Z</time>
</trkpt>
<trkpt lat="31.7797320" lon="35.1105600">
<ele>692.292236</ele>
<time>2013-06-14T04:59:12.002Z</time>
</trkpt>
<trkpt lat="31.7797240" lon="35.1104950">
<ele>691.804565</ele>
<time>2013-06-14T04:59:13.004Z</time>
</trkpt>
<trkpt lat="31.7797030" lon="35.1104330">
<ele>691.804565</ele>
<time>2013-06-14T04:59:13.998Z</time>
</trkpt>
<trkpt lat="31.7796770" lon="35.1103740">
<ele>691.804565</ele>
<time>2013-06-14T04:59:15.000Z</time>
</trkpt>
<trkpt lat="31.7796490" lon="35.1103170">
<ele>691.316895</ele>
<time>2013-06-14T04:59:16.002Z</time>
</trkpt>
<trkpt lat="31.7796180" lon="35.1102610">
<ele>690.829224</ele>
<time>2013-06-14T04:59:16.996Z</time>
</trkpt>
<trkpt lat="31.7795820" lon="35.1102080">
<ele>690.372009</ele>
<time>2013-06-14T04:59:17.998Z</time>
</trkpt>
<trkpt lat="31.7795440" lon="35.1101580">
<ele>689.884277</ele>
<time>2013-06-14T04:59:19.000Z</time>
</trkpt>
<trkpt lat="31.7793750" lon="35.1099670">
<ele>688.908936</ele>
<time>2013-06-14T04:59:23.001Z</time>
</trkpt>
<trkpt lat="31.7791170" lon="35.1096270">
<ele>685.068481</ele>
<time>2013-06-14T04:59:31.001Z</time>
</trkpt>
<trkpt lat="31.7790200" lon="35.1094850">
<ele>684.611328</ele>
<time>2013-06-14T04:59:33.999Z</time>
</trkpt>
<trkpt lat="31.7789900" lon="35.1094240">
<ele>683.635864</ele>
<time>2013-06-14T04:59:35.002Z</time>
</trkpt>
<trkpt lat="31.7789630" lon="35.1093590">
<ele>683.635864</ele>
<time>2013-06-14T04:59:36.004Z</time>
</trkpt>
<trkpt lat="31.7789420" lon="35.1092920">
<ele>683.635864</ele>
<time>2013-06-14T04:59:36.997Z</time>
</trkpt>
<trkpt lat="31.7789270" lon="35.1092240">
<ele>683.148254</ele>
<time>2013-06-14T04:59:38.000Z</time>
</trkpt>
<trkpt lat="31.7789140" lon="35.1091540">
<ele>682.660522</ele>
<time>2013-06-14T04:59:39.002Z</time>
</trkpt>
<trkpt lat="31.7789480" lon="35.1082820">
<ele>681.228027</ele>
<time>2013-06-14T04:59:51.996Z</time>
</trkpt>
<trkpt lat="31.7790680" lon="35.1075530">
<ele>679.795471</ele>
<time>2013-06-14T05:00:06.002Z</time>
</trkpt>
<trkpt lat="31.7791310" lon="35.1071020">
<ele>676.899841</ele>
<time>2013-06-14T05:00:14.996Z</time>
</trkpt>
<trkpt lat="31.7791290" lon="35.1068300">
<ele>673.547058</ele>
<time>2013-06-14T05:00:19.999Z</time>
</trkpt>
<trkpt lat="31.7791300" lon="35.1067800">
<ele>673.059326</ele>
<time>2013-06-14T05:00:21.001Z</time>
</trkpt>
<trkpt lat="31.7791140" lon="35.1064480">
<ele>669.706543</ele>
<time>2013-06-14T05:00:29.002Z</time>
</trkpt>
<trkpt lat="31.7789290" lon="35.1061500">
<ele>667.298645</ele>
<time>2013-06-14T05:00:40.000Z</time>
</trkpt>
<trkpt lat="31.7786920" lon="35.1059890">
<ele>664.890686</ele>
<time>2013-06-14T05:00:53.997Z</time>
</trkpt>
<trkpt lat="31.7785210" lon="35.1058490">
<ele>662.970520</ele>
<time>2013-06-14T05:01:04.996Z</time>
</trkpt>
<trkpt lat="31.7783930" lon="35.1054170">
<ele>661.050232</ele>
<time>2013-06-14T05:01:16.003Z</time>
</trkpt>
<trkpt lat="31.7783860" lon="35.1053660">
<ele>661.050232</ele>
<time>2013-06-14T05:01:16.997Z</time>
</trkpt>
<trkpt lat="31.7783860" lon="35.1047740">
<ele>657.666931</ele>
<time>2013-06-14T05:01:28.004Z</time>
</trkpt>
<trkpt lat="31.7783930" lon="35.1047220">
<ele>657.209717</ele>
<time>2013-06-14T05:01:28.998Z</time>
</trkpt>
<trkpt lat="31.7784070" lon="35.1046710">
<ele>657.209717</ele>
<time>2013-06-14T05:01:30.000Z</time>
</trkpt>
<trkpt lat="31.7785390" lon="35.1043600">
<ele>654.314148</ele>
<time>2013-06-14T05:01:35.996Z</time>
</trkpt>
<trkpt lat="31.7786980" lon="35.1040340">
<ele>651.906250</ele>
<time>2013-06-14T05:01:43.003Z</time>
</trkpt>
<trkpt lat="31.7787050" lon="35.1039830">
<ele>651.906250</ele>
<time>2013-06-14T05:01:43.997Z</time>
</trkpt>
<trkpt lat="31.7787070" lon="35.1039300">
<ele>651.418518</ele>
<time>2013-06-14T05:01:44.999Z</time>
</trkpt>
<trkpt lat="31.7787000" lon="35.1038750">
<ele>651.418518</ele>
<time>2013-06-14T05:01:46.001Z</time>
</trkpt>
<trkpt lat="31.7786870" lon="35.1038180">
<ele>650.961365</ele>
<time>2013-06-14T05:01:47.004Z</time>
</trkpt>
<trkpt lat="31.7786670" lon="35.1037610">
<ele>650.473694</ele>
<time>2013-06-14T05:01:47.997Z</time>
</trkpt>
<trkpt lat="31.7786440" lon="35.1037100">
<ele>650.473694</ele>
<time>2013-06-14T05:01:48.999Z</time>
</trkpt>
<trkpt lat="31.7786180" lon="35.1036650">
<ele>650.473694</ele>
<time>2013-06-14T05:01:50.002Z</time>
</trkpt>
<trkpt lat="31.7785920" lon="35.1036220">
<ele>650.473694</ele>
<time>2013-06-14T05:01:51.004Z</time>
</trkpt>
<trkpt lat="31.7782310" lon="35.1029800">
<ele>647.090393</ele>
<time>2013-06-14T05:02:03.998Z</time>
</trkpt>
<trkpt lat="31.7781060" lon="35.1027090">
<ele>646.145508</ele>
<time>2013-06-14T05:02:09.001Z</time>
</trkpt>
<trkpt lat="31.7780970" lon="35.1026520">
<ele>646.145508</ele>
<time>2013-06-14T05:02:10.003Z</time>
</trkpt>
<trkpt lat="31.7780860" lon="35.1025410">
<ele>645.657837</ele>
<time>2013-06-14T05:02:11.999Z</time>
</trkpt>
<trkpt lat="31.7780880" lon="35.1024880">
<ele>645.657837</ele>
<time>2013-06-14T05:02:13.001Z</time>
</trkpt>
<trkpt lat="31.7781580" lon="35.1014680">
<ele>643.737610</ele>
<time>2013-06-14T05:02:32.001Z</time>
</trkpt>
<trkpt lat="31.7781500" lon="35.1014160">
<ele>643.737610</ele>
<time>2013-06-14T05:02:33.003Z</time>
</trkpt>
<trkpt lat="31.7781360" lon="35.1013650">
<ele>643.249878</ele>
<time>2013-06-14T05:02:33.996Z</time>
</trkpt>
<trkpt lat="31.7781170" lon="35.1013140">
<ele>642.792664</ele>
<time>2013-06-14T05:02:34.999Z</time>
</trkpt>
<trkpt lat="31.7780920" lon="35.1012640">
<ele>642.792664</ele>
<time>2013-06-14T05:02:36.001Z</time>
</trkpt>
<trkpt lat="31.7780600" lon="35.1012210">
<ele>642.792664</ele>
<time>2013-06-14T05:02:37.003Z</time>
</trkpt>
<trkpt lat="31.7780220" lon="35.1011870">
<ele>642.792664</ele>
<time>2013-06-14T05:02:37.997Z</time>
</trkpt>
<trkpt lat="31.7779830" lon="35.1011650">
<ele>642.305054</ele>
<time>2013-06-14T05:02:38.999Z</time>
</trkpt>
<trkpt lat="31.7779430" lon="35.1011520">
<ele>642.305054</ele>
<time>2013-06-14T05:02:40.001Z</time>
</trkpt>
<trkpt lat="31.7779040" lon="35.1011420">
<ele>642.305054</ele>
<time>2013-06-14T05:02:41.004Z</time>
</trkpt>
<trkpt lat="31.7772740" lon="35.1011710">
<ele>641.329712</ele>
<time>2013-06-14T05:02:56.996Z</time>
</trkpt>
<trkpt lat="31.7766980" lon="35.1012890">
<ele>640.872498</ele>
<time>2013-06-14T05:03:12.004Z</time>
</trkpt>
<trkpt lat="31.7759840" lon="35.1012620">
<ele>637.976929</ele>
<time>2013-06-14T05:03:31.003Z</time>
</trkpt>
<trkpt lat="31.7756430" lon="35.1011370">
<ele>635.081299</ele>
<time>2013-06-14T05:03:39.997Z</time>
</trkpt>
<trkpt lat="31.7753000" lon="35.1009610">
<ele>631.240784</ele>
<time>2013-06-14T05:03:49.000Z</time>
</trkpt>
<trkpt lat="31.7747950" lon="35.1006260">
<ele>628.832886</ele>
<time>2013-06-14T05:04:02.997Z</time>
</trkpt>
<trkpt lat="31.7743850" lon="35.1002780">
<ele>625.480103</ele>
<time>2013-06-14T05:04:17.003Z</time>
</trkpt>
<trkpt lat="31.7743630" lon="35.1002380">
<ele>624.992371</ele>
<time>2013-06-14T05:04:17.996Z</time>
</trkpt>
<trkpt lat="31.7743460" lon="35.1001950">
<ele>624.992371</ele>
<time>2013-06-14T05:04:18.998Z</time>
</trkpt>
<trkpt lat="31.7743350" lon="35.1001530">
<ele>624.992371</ele>
<time>2013-06-14T05:04:20.001Z</time>
</trkpt>
<trkpt lat="31.7743230" lon="35.1001120">
<ele>624.992371</ele>
<time>2013-06-14T05:04:21.003Z</time>
</trkpt>
<trkpt lat="31.7742540" lon="35.0996050">
<ele>624.504700</ele>
<time>2013-06-14T05:04:35.000Z</time>
</trkpt>
<trkpt lat="31.7739900" lon="35.0994980">
<ele>624.017029</ele>
<time>2013-06-14T05:04:45.998Z</time>
</trkpt>
<trkpt lat="31.7735130" lon="35.0995600">
<ele>622.584473</ele>
<time>2013-06-14T05:05:00.997Z</time>
</trkpt>
<trkpt lat="31.7732280" lon="35.0994900">
<ele>620.176575</ele>
<time>2013-06-14T05:05:08.998Z</time>
</trkpt>
<trkpt lat="31.7730370" lon="35.0993660">
<ele>618.744019</ele>
<time>2013-06-14T05:05:15.003Z</time>
</trkpt>
<trkpt lat="31.7730100" lon="35.0993350">
<ele>618.744019</ele>
<time>2013-06-14T05:05:15.996Z</time>
</trkpt>
<trkpt lat="31.7729850" lon="35.0992970">
<ele>618.256348</ele>
<time>2013-06-14T05:05:16.999Z</time>
</trkpt>
<trkpt lat="31.7727970" lon="35.0989400">
<ele>614.903503</ele>
<time>2013-06-14T05:05:26.002Z</time>
</trkpt>
<trkpt lat="31.7726530" lon="35.0983680">
<ele>613.470947</ele>
<time>2013-06-14T05:05:39.998Z</time>
</trkpt>
<trkpt lat="31.7726620" lon="35.0975490">
<ele>612.495605</ele>
<time>2013-06-14T05:06:01.002Z</time>
</trkpt>
<trkpt lat="31.7725380" lon="35.0968590">
<ele>611.063049</ele>
<time>2013-06-14T05:06:18.999Z</time>
</trkpt>
<trkpt lat="31.7723630" lon="35.0968700">
<ele>612.007935</ele>
<time>2013-06-14T05:06:28.996Z</time>
</trkpt>
<trkpt lat="31.7723210" lon="35.0969200">
<ele>612.007935</ele>
<time>2013-06-14T05:07:08.999Z</time>
</trkpt>
<trkpt lat="31.7722850" lon="35.0969900">
<ele>611.550720</ele>
<time>2013-06-14T05:07:34.003Z</time>
</trkpt>
<trkpt lat="31.7722260" lon="35.0970900">
<ele>611.550720</ele>
<time>2013-06-14T05:08:00.001Z</time>
</trkpt>
<trkpt lat="31.7721750" lon="35.0971620">
<ele>612.007935</ele>
<time>2013-06-14T05:08:02.999Z</time>
</trkpt>
<trkpt lat="31.7718350" lon="35.0976260">
<ele>611.550720</ele>
<time>2013-06-14T05:08:20.003Z</time>
</trkpt>
<trkpt lat="31.7713740" lon="35.0983820">
<ele>609.142822</ele>
<time>2013-06-14T05:08:39.002Z</time>
</trkpt>
<trkpt lat="31.7710120" lon="35.0988520">
<ele>608.167480</ele>
<time>2013-06-14T05:08:50.001Z</time>
</trkpt>
<trkpt lat="31.7709720" lon="35.0988790">
<ele>608.167480</ele>
<time>2013-06-14T05:08:51.003Z</time>
</trkpt>
<trkpt lat="31.7707520" lon="35.0990000">
<ele>607.679749</ele>
<time>2013-06-14T05:08:55.997Z</time>
</trkpt>
<trkpt lat="31.7707040" lon="35.0990150">
<ele>607.679749</ele>
<time>2013-06-14T05:08:56.999Z</time>
</trkpt>
<trkpt lat="31.7706540" lon="35.0990270">
<ele>607.222534</ele>
<time>2013-06-14T05:08:58.001Z</time>
</trkpt>
<trkpt lat="31.7700690" lon="35.0990250">
<ele>606.247192</ele>
<time>2013-06-14T05:09:10.996Z</time>
</trkpt>
<trkpt lat="31.7694340" lon="35.0990120">
<ele>603.351624</ele>
<time>2013-06-14T05:09:26.997Z</time>
</trkpt>
<trkpt lat="31.7693010" lon="35.0990180">
<ele>602.894409</ele>
<time>2013-06-14T05:09:30.004Z</time>
</trkpt>
<trkpt lat="31.7689210" lon="35.0991280">
<ele>599.998779</ele>
<time>2013-06-14T05:09:40.000Z</time>
</trkpt>
<trkpt lat="31.7685740" lon="35.0992250">
<ele>597.133667</ele>
<time>2013-06-14T05:09:48.001Z</time>
</trkpt>
<trkpt lat="31.7685230" lon="35.0992360">
<ele>596.645996</ele>
<time>2013-06-14T05:09:49.003Z</time>
</trkpt>
<trkpt lat="31.7682190" lon="35.0993350">
<ele>594.238098</ele>
<time>2013-06-14T05:09:56.002Z</time>
</trkpt>
<trkpt lat="31.7678950" lon="35.0996000">
<ele>591.342468</ele>
<time>2013-06-14T05:10:07.000Z</time>
</trkpt>
<trkpt lat="31.7676680" lon="35.0998180">
<ele>589.422241</ele>
<time>2013-06-14T05:10:15.001Z</time>
</trkpt>
<trkpt lat="31.7676320" lon="35.0998380">
<ele>588.965027</ele>
<time>2013-06-14T05:10:16.003Z</time>
</trkpt>
<trkpt lat="31.7675970" lon="35.0998540">
<ele>588.446899</ele>
<time>2013-06-14T05:10:16.997Z</time>
</trkpt>
<trkpt lat="31.7675600" lon="35.0998660">
<ele>587.989685</ele>
<time>2013-06-14T05:10:17.999Z</time>
</trkpt>
<trkpt lat="31.7675230" lon="35.0998760">
<ele>587.502014</ele>
<time>2013-06-14T05:10:19.001Z</time>
</trkpt>
<trkpt lat="31.7674870" lon="35.0998840">
<ele>587.502014</ele>
<time>2013-06-14T05:10:20.004Z</time>
</trkpt>
<trkpt lat="31.7674070" lon="35.0998820">
<ele>586.526672</ele>
<time>2013-06-14T05:10:21.999Z</time>
</trkpt>
<trkpt lat="31.7669530" lon="35.0998090">
<ele>584.149170</ele>
<time>2013-06-14T05:10:34.000Z</time>
</trkpt>
<trkpt lat="31.7664060" lon="35.0998010">
<ele>580.765930</ele>
<time>2013-06-14T05:10:47.997Z</time>
</trkpt>
<trkpt lat="31.7663660" lon="35.0997990">
<ele>580.278259</ele>
<time>2013-06-14T05:10:48.999Z</time>
</trkpt>
<trkpt lat="31.7661310" lon="35.0997550">
<ele>578.357971</ele>
<time>2013-06-14T05:10:55.004Z</time>
</trkpt>
<trkpt lat="31.7658200" lon="35.0995960">
<ele>575.492859</ele>
<time>2013-06-14T05:11:02.003Z</time>
</trkpt>
<trkpt lat="31.7657160" lon="35.0995570">
<ele>574.029846</ele>
<time>2013-06-14T05:11:03.998Z</time>
</trkpt>
<trkpt lat="31.7655400" lon="35.0995020">
<ele>572.597290</ele>
<time>2013-06-14T05:11:06.996Z</time>
</trkpt>
<trkpt lat="31.7651350" lon="35.0993690">
<ele>569.732117</ele>
<time>2013-06-14T05:11:14.004Z</time>
</trkpt>
<trkpt lat="31.7650810" lon="35.0993500">
<ele>569.244446</ele>
<time>2013-06-14T05:11:14.997Z</time>
</trkpt>
<trkpt lat="31.7647040" lon="35.0991500">
<ele>566.836548</ele>
<time>2013-06-14T05:11:22.998Z</time>
</trkpt>
<trkpt lat="31.7646270" lon="35.0990860">
<ele>566.836548</ele>
<time>2013-06-14T05:11:25.002Z</time>
</trkpt>
<trkpt lat="31.7645970" lon="35.0990500">
<ele>566.348877</ele>
<time>2013-06-14T05:11:25.996Z</time>
</trkpt>
<trkpt lat="31.7645740" lon="35.0990090">
<ele>565.861206</ele>
<time>2013-06-14T05:11:26.998Z</time>
</trkpt>
<trkpt lat="31.7645550" lon="35.0989660">
<ele>565.861206</ele>
<time>2013-06-14T05:11:28.000Z</time>
</trkpt>
<trkpt lat="31.7645390" lon="35.0989240">
<ele>565.403992</ele>
<time>2013-06-14T05:11:29.003Z</time>
</trkpt>
<trkpt lat="31.7644840" lon="35.0984540">
<ele>562.020752</ele>
<time>2013-06-14T05:11:37.997Z</time>
</trkpt>
<trkpt lat="31.7645050" lon="35.0977350">
<ele>560.100464</ele>
<time>2013-06-14T05:11:52.996Z</time>
</trkpt>
<trkpt lat="31.7645070" lon="35.0976500">
<ele>559.612793</ele>
<time>2013-06-14T05:12:04.003Z</time>
</trkpt>
<trkpt lat="31.7644420" lon="35.0975620">
<ele>558.667908</ele>
<time>2013-06-14T05:47:20.000Z</time>
</trkpt>
<trkpt lat="31.7644220" lon="35.0975260">
<ele>558.180237</ele>
<time>2013-06-14T05:47:22.004Z</time>
</trkpt>
<trkpt lat="31.7644020" lon="35.0974850">
<ele>557.204895</ele>
<time>2013-06-14T05:47:24.000Z</time>
</trkpt>
<trkpt lat="31.7642990" lon="35.0972380">
<ele>554.339722</ele>
<time>2013-06-14T05:47:37.003Z</time>
</trkpt>
<trkpt lat="31.7642430" lon="35.0968660">
<ele>552.907227</ele>
<time>2013-06-14T05:47:51.000Z</time>
</trkpt>
<trkpt lat="31.7642480" lon="35.0966120">
<ele>550.499268</ele>
<time>2013-06-14T05:48:00.003Z</time>
</trkpt>
<trkpt lat="31.7642920" lon="35.0964400">
<ele>548.579041</ele>
<time>2013-06-14T05:48:03.001Z</time>
</trkpt>
<trkpt lat="31.7643960" lon="35.0961110">
<ele>549.523926</ele>
<time>2013-06-14T05:48:12.004Z</time>
</trkpt>
<trkpt lat="31.7641550" lon="35.0959700">
<ele>547.603699</ele>
<time>2013-06-14T05:48:20.998Z</time>
</trkpt>
<trkpt lat="31.7639700" lon="35.0959120">
<ele>544.708069</ele>
<time>2013-06-14T05:48:28.999Z</time>
</trkpt>
<trkpt lat="31.7638180" lon="35.0959030">
<ele>540.867615</ele>
<time>2013-06-14T05:48:36.999Z</time>
</trkpt>
<trkpt lat="31.7637330" lon="35.0958750">
<ele>539.435059</ele>
<time>2013-06-14T05:48:39.997Z</time>
</trkpt>
<trkpt lat="31.7636180" lon="35.0958270">
<ele>538.002502</ele>
<time>2013-06-14T05:48:43.998Z</time>
</trkpt>
<trkpt lat="31.7634250" lon="35.0957630">
<ele>535.106873</ele>
<time>2013-06-14T05:48:53.001Z</time>
</trkpt>
<trkpt lat="31.7632640" lon="35.0956850">
<ele>532.241760</ele>
<time>2013-06-14T05:49:02.004Z</time>
</trkpt>
<trkpt lat="31.7632210" lon="35.0956950">
<ele>530.778748</ele>
<time>2013-06-14T05:49:05.002Z</time>
</trkpt>
<trkpt lat="31.7631220" lon="35.0957080">
<ele>528.370789</ele>
<time>2013-06-14T05:49:12.000Z</time>
</trkpt>
<trkpt lat="31.7630830" lon="35.0957120">
<ele>527.425903</ele>
<time>2013-06-14T05:49:14.998Z</time>
</trkpt>
<trkpt lat="31.7630330" lon="35.0957340">
<ele>525.505676</ele>
<time>2013-06-14T05:49:29.004Z</time>
</trkpt>
<trkpt lat="31.7630020" lon="35.0957430">
<ele>525.505676</ele>
<time>2013-06-14T05:49:45.998Z</time>
</trkpt>
<trkpt lat="31.7628910" lon="35.0957320">
<ele>522.122375</ele>
<time>2013-06-14T05:49:59.002Z</time>
</trkpt>
<trkpt lat="31.7627760" lon="35.0956960">
<ele>519.257263</ele>
<time>2013-06-14T05:50:08.998Z</time>
</trkpt>
<trkpt lat="31.7627030" lon="35.0956550">
<ele>517.824707</ele>
<time>2013-06-14T05:50:12.998Z</time>
</trkpt>
<trkpt lat="31.7624410" lon="35.0955010">
<ele>514.929138</ele>
<time>2013-06-14T05:50:23.004Z</time>
</trkpt>
<trkpt lat="31.7621810" lon="35.0953130">
<ele>512.033508</ele>
<time>2013-06-14T05:50:33.000Z</time>
</trkpt>
<trkpt lat="31.7620280" lon="35.0953800">
<ele>508.680725</ele>
<time>2013-06-14T05:50:41.001Z</time>
</trkpt>
<trkpt lat="31.7620140" lon="35.0954300">
<ele>507.705353</ele>
<time>2013-06-14T05:50:42.996Z</time>
</trkpt>
<trkpt lat="31.7620680" lon="35.0956690">
<ele>504.840240</ele>
<time>2013-06-14T05:50:54.004Z</time>
</trkpt>
<trkpt lat="31.7621090" lon="35.0959080">
<ele>501.456940</ele>
<time>2013-06-14T05:51:04.000Z</time>
</trkpt>
<trkpt lat="31.7621580" lon="35.0959940">
<ele>500.024414</ele>
<time>2013-06-14T05:51:08.001Z</time>
</trkpt>
<trkpt lat="31.7623210" lon="35.0961420">
<ele>499.049042</ele>
<time>2013-06-14T05:51:20.002Z</time>
</trkpt>
<trkpt lat="31.7623330" lon="35.0961670">
<ele>498.591858</ele>
<time>2013-06-14T05:51:32.996Z</time>
</trkpt>
<trkpt lat="31.7623560" lon="35.0962140">
<ele>497.616486</ele>
<time>2013-06-14T05:51:40.997Z</time>
</trkpt>
<trkpt lat="31.7623670" lon="35.0962560">
<ele>497.128815</ele>
<time>2013-06-14T05:51:51.002Z</time>
</trkpt>
<trkpt lat="31.7623070" lon="35.0962420">
<ele>495.696259</ele>
<time>2013-06-14T05:52:00.998Z</time>
</trkpt>
<trkpt lat="31.7621600" lon="35.0962440">
<ele>493.288330</ele>
<time>2013-06-14T05:52:11.997Z</time>
</trkpt>
<trkpt lat="31.7620410" lon="35.0962400">
<ele>491.368073</ele>
<time>2013-06-14T05:52:26.996Z</time>
</trkpt>
<trkpt lat="31.7620060" lon="35.0962070">
<ele>491.368073</ele>
<time>2013-06-14T05:52:53.996Z</time>
</trkpt>
<trkpt lat="31.7619780" lon="35.0961770">
<ele>491.368073</ele>
<time>2013-06-14T05:53:24.996Z</time>
</trkpt>
<trkpt lat="31.7618870" lon="35.0961170">
<ele>490.880402</ele>
<time>2013-06-14T05:55:17.999Z</time>
</trkpt>
<trkpt lat="31.7617190" lon="35.0961010">
<ele>487.527588</ele>
<time>2013-06-14T05:55:30.000Z</time>
</trkpt>
<trkpt lat="31.7617180" lon="35.0961100">
<ele>487.527588</ele>
<time>2013-06-14T05:55:31.002Z</time>
</trkpt>
<trkpt lat="31.7616070" lon="35.0960720">
<ele>484.631989</ele>
<time>2013-06-14T05:55:40.999Z</time>
</trkpt>
<trkpt lat="31.7614830" lon="35.0960680">
<ele>481.279205</ele>
<time>2013-06-14T05:55:51.997Z</time>
</trkpt>
<trkpt lat="31.7613620" lon="35.0960880">
<ele>477.438721</ele>
<time>2013-06-14T05:56:02.996Z</time>
</trkpt>
<trkpt lat="31.7611900" lon="35.0960530">
<ele>474.055450</ele>
<time>2013-06-14T05:56:14.997Z</time>
</trkpt>
<trkpt lat="31.7610460" lon="35.0960170">
<ele>470.702667</ele>
<time>2013-06-14T05:56:24.000Z</time>
</trkpt>
<trkpt lat="31.7609740" lon="35.0960060">
<ele>469.727264</ele>
<time>2013-06-14T05:56:29.003Z</time>
</trkpt>
<trkpt lat="31.7609350" lon="35.0960640">
<ele>468.294739</ele>
<time>2013-06-14T05:56:33.003Z</time>
</trkpt>
<trkpt lat="31.7609250" lon="35.0960950">
<ele>468.294739</ele>
<time>2013-06-14T05:56:34.999Z</time>
</trkpt>
<trkpt lat="31.7609720" lon="35.0962610">
<ele>465.886810</ele>
<time>2013-06-14T05:56:45.004Z</time>
</trkpt>
<trkpt lat="31.7610060" lon="35.0963490">
<ele>464.941925</ele>
<time>2013-06-14T05:56:57.998Z</time>
</trkpt>
<trkpt lat="31.7610300" lon="35.0964990">
<ele>462.046326</ele>
<time>2013-06-14T05:57:14.000Z</time>
</trkpt>
<trkpt lat="31.7609880" lon="35.0965370">
<ele>460.613739</ele>
<time>2013-06-14T05:57:23.003Z</time>
</trkpt>
<trkpt lat="31.7607060" lon="35.0963740">
<ele>457.718140</ele>
<time>2013-06-14T05:57:35.997Z</time>
</trkpt>
<trkpt lat="31.7605270" lon="35.0961140">
<ele>454.365356</ele>
<time>2013-06-14T05:57:46.002Z</time>
</trkpt>
<trkpt lat="31.7603950" lon="35.0959700">
<ele>451.469757</ele>
<time>2013-06-14T05:57:57.001Z</time>
</trkpt>
<trkpt lat="31.7602330" lon="35.0959460">
<ele>447.629272</ele>
<time>2013-06-14T05:58:21.996Z</time>
</trkpt>
<trkpt lat="31.7602220" lon="35.0959820">
<ele>447.629272</ele>
<time>2013-06-14T05:58:29.997Z</time>
</trkpt>
<trkpt lat="31.7602610" lon="35.0961290">
<ele>448.116943</ele>
<time>2013-06-14T05:58:39.000Z</time>
</trkpt>
<trkpt lat="31.7603850" lon="35.0962890">
<ele>449.061859</ele>
<time>2013-06-14T05:58:52.003Z</time>
</trkpt>
<trkpt lat="31.7604260" lon="35.0963470">
<ele>449.549530</ele>
<time>2013-06-14T05:58:56.004Z</time>
</trkpt>
<trkpt lat="31.7604840" lon="35.0964010">
<ele>450.037201</ele>
<time>2013-06-14T05:59:00.004Z</time>
</trkpt>
<trkpt lat="31.7606170" lon="35.0965410">
<ele>450.524872</ele>
<time>2013-06-14T05:59:15.003Z</time>
</trkpt>
<trkpt lat="31.7607390" lon="35.0966180">
<ele>451.469757</ele>
<time>2013-06-14T06:00:13.997Z</time>
</trkpt>
<trkpt lat="31.7609220" lon="35.0968100">
<ele>451.957458</ele>
<time>2013-06-14T06:00:28.996Z</time>
</trkpt>
<trkpt lat="31.7611320" lon="35.0969670">
<ele>452.932800</ele>
<time>2013-06-14T06:00:41.999Z</time>
</trkpt>
<trkpt lat="31.7613720" lon="35.0971820">
<ele>452.932800</ele>
<time>2013-06-14T06:00:55.002Z</time>
</trkpt>
<trkpt lat="31.7614880" lon="35.0972730">
<ele>453.877686</ele>
<time>2013-06-14T06:00:59.996Z</time>
</trkpt>
<trkpt lat="31.7616480" lon="35.0974110">
<ele>455.797913</ele>
<time>2013-06-14T06:01:11.004Z</time>
</trkpt>
<trkpt lat="31.7616820" lon="35.0974460">
<ele>455.797913</ele>
<time>2013-06-14T06:01:12.999Z</time>
</trkpt>
<trkpt lat="31.7617630" lon="35.0975770">
<ele>456.285614</ele>
<time>2013-06-14T06:01:19.004Z</time>
</trkpt>
<trkpt lat="31.7619240" lon="35.0978650">
<ele>457.230469</ele>
<time>2013-06-14T06:01:31.999Z</time>
</trkpt>
<trkpt lat="31.7621160" lon="35.0981980">
<ele>458.205841</ele>
<time>2013-06-14T06:01:46.998Z</time>
</trkpt>
<trkpt lat="31.7621850" lon="35.0984010">
<ele>459.181213</ele>
<time>2013-06-14T06:01:53.996Z</time>
</trkpt>
<trkpt lat="31.7622270" lon="35.0987040">
<ele>460.126068</ele>
<time>2013-06-14T06:02:08.002Z</time>
</trkpt>
<trkpt lat="31.7622690" lon="35.0988200">
<ele>460.613739</ele>
<time>2013-06-14T06:02:13.004Z</time>
</trkpt>
<trkpt lat="31.7623160" lon="35.0988890">
<ele>461.558655</ele>
<time>2013-06-14T06:02:16.996Z</time>
</trkpt>
<trkpt lat="31.7623650" lon="35.0991200">
<ele>461.558655</ele>
<time>2013-06-14T06:02:28.003Z</time>
</trkpt>
<trkpt lat="31.7623610" lon="35.0992110">
<ele>461.558655</ele>
<time>2013-06-14T06:02:32.004Z</time>
</trkpt>
<trkpt lat="31.7624820" lon="35.0993910">
<ele>462.533997</ele>
<time>2013-06-14T06:02:40.998Z</time>
</trkpt>
<trkpt lat="31.7625430" lon="35.0994650">
<ele>462.533997</ele>
<time>2013-06-14T06:02:44.998Z</time>
</trkpt>
<trkpt lat="31.7628180" lon="35.0996830">
<ele>463.966553</ele>
<time>2013-06-14T06:03:02.002Z</time>
</trkpt>
<trkpt lat="31.7629350" lon="35.0998290">
<ele>464.941925</ele>
<time>2013-06-14T06:03:10.996Z</time>
</trkpt>
<trkpt lat="31.7630860" lon="35.1000720">
<ele>466.374481</ele>
<time>2013-06-14T06:03:26.004Z</time>
</trkpt>
<trkpt lat="31.7632750" lon="35.1002430">
<ele>466.862152</ele>
<time>2013-06-14T06:03:36.000Z</time>
</trkpt>
<trkpt lat="31.7634620" lon="35.1003990">
<ele>468.782410</ele>
<time>2013-06-14T06:03:50.999Z</time>
</trkpt>
<trkpt lat="31.7634880" lon="35.1004100">
<ele>469.270081</ele>
<time>2013-06-14T06:03:53.004Z</time>
</trkpt>
<trkpt lat="31.7635240" lon="35.1004380">
<ele>469.270081</ele>
<time>2013-06-14T06:03:56.002Z</time>
</trkpt>
<trkpt lat="31.7635980" lon="35.1004940">
<ele>470.702667</ele>
<time>2013-06-14T06:04:01.998Z</time>
</trkpt>
<trkpt lat="31.7636980" lon="35.1005300">
<ele>471.647522</ele>
<time>2013-06-14T06:04:08.996Z</time>
</trkpt>
<trkpt lat="31.7637920" lon="35.1005850">
<ele>473.598267</ele>
<time>2013-06-14T06:04:16.997Z</time>
</trkpt>
<trkpt lat="31.7639920" lon="35.1006960">
<ele>474.543121</ele>
<time>2013-06-14T06:04:31.996Z</time>
</trkpt>
<trkpt lat="31.7642960" lon="35.1009470">
<ele>473.598267</ele>
<time>2013-06-14T06:04:44.999Z</time>
</trkpt>
<trkpt lat="31.7645620" lon="35.1011470">
<ele>474.543121</ele>
<time>2013-06-14T06:04:55.998Z</time>
</trkpt>
<trkpt lat="31.7648410" lon="35.1012470">
<ele>475.518463</ele>
<time>2013-06-14T06:05:09.001Z</time>
</trkpt>
<trkpt lat="31.7651120" lon="35.1013210">
<ele>477.895935</ele>
<time>2013-06-14T06:05:20.000Z</time>
</trkpt>
<trkpt lat="31.7652060" lon="35.1013360">
<ele>478.383606</ele>
<time>2013-06-14T06:05:25.002Z</time>
</trkpt>
<trkpt lat="31.7652790" lon="35.1013650">
<ele>478.871277</ele>
<time>2013-06-14T06:05:29.003Z</time>
</trkpt>
<trkpt lat="31.7655890" lon="35.1015420">
<ele>479.846649</ele>
<time>2013-06-14T06:05:44.002Z</time>
</trkpt>
<trkpt lat="31.7656360" lon="35.1016180">
<ele>480.334320</ele>
<time>2013-06-14T06:05:47.000Z</time>
</trkpt>
<trkpt lat="31.7657860" lon="35.1018100">
<ele>483.199463</ele>
<time>2013-06-14T06:06:01.999Z</time>
</trkpt>
<trkpt lat="31.7658620" lon="35.1018570">
<ele>484.174805</ele>
<time>2013-06-14T06:06:08.997Z</time>
</trkpt>
<trkpt lat="31.7658800" lon="35.1018780">
<ele>484.174805</ele>
<time>2013-06-14T06:06:11.002Z</time>
</trkpt>
<trkpt lat="31.7660700" lon="35.1019780">
<ele>485.607330</ele>
<time>2013-06-14T06:06:24.998Z</time>
</trkpt>
<trkpt lat="31.7663920" lon="35.1020660">
<ele>487.039917</ele>
<time>2013-06-14T06:06:39.004Z</time>
</trkpt>
<trkpt lat="31.7666970" lon="35.1020240">
<ele>487.039917</ele>
<time>2013-06-14T06:06:51.998Z</time>
</trkpt>
<trkpt lat="31.7668800" lon="35.1020150">
<ele>488.960144</ele>
<time>2013-06-14T06:07:05.002Z</time>
</trkpt>
<trkpt lat="31.7670260" lon="35.1019840">
<ele>490.423187</ele>
<time>2013-06-14T06:07:16.000Z</time>
</trkpt>
<trkpt lat="31.7672260" lon="35.1019280">
<ele>492.343445</ele>
<time>2013-06-14T06:07:29.004Z</time>
</trkpt>
<trkpt lat="31.7674200" lon="35.1018820">
<ele>493.288330</ele>
<time>2013-06-14T06:07:43.000Z</time>
</trkpt>
<trkpt lat="31.7675640" lon="35.1018150">
<ele>493.776001</ele>
<time>2013-06-14T06:07:53.999Z</time>
</trkpt>
<trkpt lat="31.7677190" lon="35.1017560">
<ele>494.751343</ele>
<time>2013-06-14T06:08:04.998Z</time>
</trkpt>
<trkpt lat="31.7678720" lon="35.1017510">
<ele>495.208557</ele>
<time>2013-06-14T06:08:15.003Z</time>
</trkpt>
<trkpt lat="31.7680070" lon="35.1016800">
<ele>495.208557</ele>
<time>2013-06-14T06:08:23.004Z</time>
</trkpt>
<trkpt lat="31.7680550" lon="35.1016750">
<ele>495.208557</ele>
<time>2013-06-14T06:08:26.002Z</time>
</trkpt>
<trkpt lat="31.7682900" lon="35.1016270">
<ele>495.696259</ele>
<time>2013-06-14T06:08:37.000Z</time>
</trkpt>
<trkpt lat="31.7683260" lon="35.1016020">
<ele>496.671600</ele>
<time>2013-06-14T06:08:41.001Z</time>
</trkpt>
<trkpt lat="31.7683850" lon="35.1015370">
<ele>498.104156</ele>
<time>2013-06-14T06:08:46.997Z</time>
</trkpt>
<trkpt lat="31.7684720" lon="35.1015080">
<ele>499.536713</ele>
<time>2013-06-14T06:08:54.004Z</time>
</trkpt>
<trkpt lat="31.7686350" lon="35.1015090">
<ele>501.456940</ele>
<time>2013-06-14T06:09:08.001Z</time>
</trkpt>
<trkpt lat="31.7686750" lon="35.1014940">
<ele>501.944641</ele>
<time>2013-06-14T06:09:10.999Z</time>
</trkpt>
<trkpt lat="31.7686880" lon="35.1014960">
<ele>501.944641</ele>
<time>2013-06-14T06:09:12.001Z</time>
</trkpt>
<trkpt lat="31.7688440" lon="35.1014500">
<ele>503.377197</ele>
<time>2013-06-14T06:09:23.000Z</time>
</trkpt>
<trkpt lat="31.7689050" lon="35.1014280">
<ele>504.352539</ele>
<time>2013-06-14T06:09:28.002Z</time>
</trkpt>
<trkpt lat="31.7690860" lon="35.1013310">
<ele>505.785126</ele>
<time>2013-06-14T06:09:41.999Z</time>
</trkpt>
<trkpt lat="31.7692850" lon="35.1012030">
<ele>506.272797</ele>
<time>2013-06-14T06:09:55.002Z</time>
</trkpt>
<trkpt lat="31.7694820" lon="35.1011070">
<ele>507.705353</ele>
<time>2013-06-14T06:10:07.997Z</time>
</trkpt>
<trkpt lat="31.7697430" lon="35.1010330">
<ele>509.168396</ele>
<time>2013-06-14T06:10:25.000Z</time>
</trkpt>
<trkpt lat="31.7699090" lon="35.1010050">
<ele>510.600952</ele>
<time>2013-06-14T06:10:34.997Z</time>
</trkpt>
<trkpt lat="31.7700670" lon="35.1009510">
<ele>511.088654</ele>
<time>2013-06-14T06:10:46.998Z</time>
</trkpt>
<trkpt lat="31.7703640" lon="35.1008660">
<ele>511.545868</ele>
<time>2013-06-14T06:11:01.003Z</time>
</trkpt>
<trkpt lat="31.7705420" lon="35.1008380">
<ele>513.466064</ele>
<time>2013-06-14T06:11:11.000Z</time>
</trkpt>
<trkpt lat="31.7707530" lon="35.1007910">
<ele>514.929138</ele>
<time>2013-06-14T06:11:24.996Z</time>
</trkpt>
<trkpt lat="31.7710070" lon="35.1008070">
<ele>516.361694</ele>
<time>2013-06-14T06:11:36.004Z</time>
</trkpt>
<trkpt lat="31.7712150" lon="35.1008050">
<ele>517.337036</ele>
<time>2013-06-14T06:11:47.996Z</time>
</trkpt>
<trkpt lat="31.7714250" lon="35.1007760">
<ele>517.824707</ele>
<time>2013-06-14T06:11:59.997Z</time>
</trkpt>
<trkpt lat="31.7715470" lon="35.1006640">
<ele>518.769592</ele>
<time>2013-06-14T06:12:05.000Z</time>
</trkpt>
<trkpt lat="31.7717710" lon="35.1007390">
<ele>520.202148</ele>
<time>2013-06-14T06:12:17.001Z</time>
</trkpt>
<trkpt lat="31.7719750" lon="35.1007910">
<ele>521.177551</ele>
<time>2013-06-14T06:12:27.999Z</time>
</trkpt>
<trkpt lat="31.7720710" lon="35.1008240">
<ele>521.665222</ele>
<time>2013-06-14T06:12:34.998Z</time>
</trkpt>
<trkpt lat="31.7721610" lon="35.1008690">
<ele>522.122375</ele>
<time>2013-06-14T06:12:41.996Z</time>
</trkpt>
<trkpt lat="31.7724480" lon="35.1010690">
<ele>522.610046</ele>
<time>2013-06-14T06:12:54.999Z</time>
</trkpt>
<trkpt lat="31.7726520" lon="35.1011950">
<ele>523.585449</ele>
<time>2013-06-14T06:13:07.000Z</time>
</trkpt>
<trkpt lat="31.7728430" lon="35.1012680">
<ele>524.530334</ele>
<time>2013-06-14T06:13:19.001Z</time>
</trkpt>
<trkpt lat="31.7730530" lon="35.1013570">
<ele>525.993347</ele>
<time>2013-06-14T06:13:31.996Z</time>
</trkpt>
<trkpt lat="31.7732530" lon="35.1013980">
<ele>527.913574</ele>
<time>2013-06-14T06:13:46.001Z</time>
</trkpt>
<trkpt lat="31.7733170" lon="35.1014330">
<ele>528.858459</ele>
<time>2013-06-14T06:13:51.997Z</time>
</trkpt>
<trkpt lat="31.7733610" lon="35.1014840">
<ele>529.346130</ele>
<time>2013-06-14T06:13:57.000Z</time>
</trkpt>
<trkpt lat="31.7733960" lon="35.1015160">
<ele>529.833862</ele>
<time>2013-06-14T06:14:01.000Z</time>
</trkpt>
<trkpt lat="31.7735020" lon="35.1016820">
<ele>530.778748</ele>
<time>2013-06-14T06:14:14.004Z</time>
</trkpt>
<trkpt lat="31.7737160" lon="35.1018750">
<ele>530.778748</ele>
<time>2013-06-14T06:14:29.003Z</time>
</trkpt>
<trkpt lat="31.7739510" lon="35.1019800">
<ele>532.241760</ele>
<time>2013-06-14T06:14:44.002Z</time>
</trkpt>
<trkpt lat="31.7740320" lon="35.1020550">
<ele>532.698975</ele>
<time>2013-06-14T06:14:49.998Z</time>
</trkpt>
<trkpt lat="31.7740850" lon="35.1021250">
<ele>533.186646</ele>
<time>2013-06-14T06:14:55.000Z</time>
</trkpt>
<trkpt lat="31.7743030" lon="35.1022780">
<ele>534.619202</ele>
<time>2013-06-14T06:15:09.999Z</time>
</trkpt>
<trkpt lat="31.7743940" lon="35.1023490">
<ele>535.106873</ele>
<time>2013-06-14T06:15:16.004Z</time>
</trkpt>
<trkpt lat="31.7745160" lon="35.1023980">
<ele>535.106873</ele>
<time>2013-06-14T06:15:23.996Z</time>
</trkpt>
<trkpt lat="31.7747200" lon="35.1025130">
<ele>537.027100</ele>
<time>2013-06-14T06:15:36.999Z</time>
</trkpt>
<trkpt lat="31.7748870" lon="35.1027080">
<ele>538.490173</ele>
<time>2013-06-14T06:15:50.996Z</time>
</trkpt>
<trkpt lat="31.7750540" lon="35.1029300">
<ele>538.490173</ele>
<time>2013-06-14T06:16:02.004Z</time>
</trkpt>
<trkpt lat="31.7751390" lon="35.1030400">
<ele>539.435059</ele>
<time>2013-06-14T06:16:08.000Z</time>
</trkpt>
<trkpt lat="31.7751870" lon="35.1030650">
<ele>539.922729</ele>
<time>2013-06-14T06:16:12.000Z</time>
</trkpt>
<trkpt lat="31.7753290" lon="35.1031570">
<ele>542.330627</ele>
<time>2013-06-14T06:16:25.003Z</time>
</trkpt>
<trkpt lat="31.7753550" lon="35.1031730">
<ele>542.330627</ele>
<time>2013-06-14T06:16:26.999Z</time>
</trkpt>
<trkpt lat="31.7754400" lon="35.1032600">
<ele>543.275513</ele>
<time>2013-06-14T06:16:35.000Z</time>
</trkpt>
<trkpt lat="31.7754540" lon="35.1033020">
<ele>543.763184</ele>
<time>2013-06-14T06:16:37.998Z</time>
</trkpt>
<trkpt lat="31.7754780" lon="35.1033430">
<ele>544.708069</ele>
<time>2013-06-14T06:16:41.998Z</time>
</trkpt>
<trkpt lat="31.7755150" lon="35.1034140">
<ele>545.195740</ele>
<time>2013-06-14T06:16:47.001Z</time>
</trkpt>
<trkpt lat="31.7755510" lon="35.1035160">
<ele>546.658813</ele>
<time>2013-06-14T06:16:55.001Z</time>
</trkpt>
<trkpt lat="31.7755520" lon="35.1035890">
<ele>547.116028</ele>
<time>2013-06-14T06:16:59.002Z</time>
</trkpt>
<trkpt lat="31.7755450" lon="35.1036590">
<ele>547.116028</ele>
<time>2013-06-14T06:17:03.002Z</time>
</trkpt>
<trkpt lat="31.7756190" lon="35.1039020">
<ele>548.579041</ele>
<time>2013-06-14T06:17:19.997Z</time>
</trkpt>
<trkpt lat="31.7757330" lon="35.1041780">
<ele>548.579041</ele>
<time>2013-06-14T06:17:34.002Z</time>
</trkpt>
<trkpt lat="31.7758050" lon="35.1044780">
<ele>549.523926</ele>
<time>2013-06-14T06:17:46.003Z</time>
</trkpt>
<trkpt lat="31.7758560" lon="35.1046260">
<ele>550.499268</ele>
<time>2013-06-14T06:17:53.002Z</time>
</trkpt>
<trkpt lat="31.7758900" lon="35.1048950">
<ele>551.444153</ele>
<time>2013-06-14T06:18:04.000Z</time>
</trkpt>
<trkpt lat="31.7759010" lon="35.1049600">
<ele>551.931885</ele>
<time>2013-06-14T06:18:08.001Z</time>
</trkpt>
<trkpt lat="31.7759230" lon="35.1050280">
<ele>552.419556</ele>
<time>2013-06-14T06:18:12.001Z</time>
</trkpt>
<trkpt lat="31.7759740" lon="35.1052330">
<ele>554.339722</ele>
<time>2013-06-14T06:18:24.002Z</time>
</trkpt>
<trkpt lat="31.7759870" lon="35.1053140">
<ele>554.827454</ele>
<time>2013-06-14T06:18:28.996Z</time>
</trkpt>
<trkpt lat="31.7760150" lon="35.1055790">
<ele>556.747681</ele>
<time>2013-06-14T06:18:45.999Z</time>
</trkpt>
<trkpt lat="31.7760240" lon="35.1056420">
<ele>557.204895</ele>
<time>2013-06-14T06:18:50.000Z</time>
</trkpt>
<trkpt lat="31.7760510" lon="35.1057700">
<ele>558.180237</ele>
<time>2013-06-14T06:18:58.000Z</time>
</trkpt>
<trkpt lat="31.7760810" lon="35.1059950">
<ele>559.612793</ele>
<time>2013-06-14T06:19:11.004Z</time>
</trkpt>
<trkpt lat="31.7761360" lon="35.1062950">
<ele>560.588135</ele>
<time>2013-06-14T06:19:27.998Z</time>
</trkpt>
<trkpt lat="31.7761730" lon="35.1065010">
<ele>561.563538</ele>
<time>2013-06-14T06:19:38.997Z</time>
</trkpt>
<trkpt lat="31.7761950" lon="35.1065880">
<ele>562.508423</ele>
<time>2013-06-14T06:19:44.000Z</time>
</trkpt>
<trkpt lat="31.7761790" lon="35.1069360">
<ele>563.940918</ele>
<time>2013-06-14T06:20:02.999Z</time>
</trkpt>
<trkpt lat="31.7761870" lon="35.1071640">
<ele>564.916321</ele>
<time>2013-06-14T06:20:16.002Z</time>
</trkpt>
<trkpt lat="31.7761910" lon="35.1074470">
<ele>566.348877</ele>
<time>2013-06-14T06:20:31.001Z</time>
</trkpt>
<trkpt lat="31.7761860" lon="35.1076100">
<ele>567.324280</ele>
<time>2013-06-14T06:20:39.002Z</time>
</trkpt>
<trkpt lat="31.7761870" lon="35.1076410">
<ele>567.811951</ele>
<time>2013-06-14T06:20:40.998Z</time>
</trkpt>
<trkpt lat="31.7762000" lon="35.1078670">
<ele>568.269104</ele>
<time>2013-06-14T06:20:54.001Z</time>
</trkpt>
<trkpt lat="31.7762170" lon="35.1081770">
<ele>569.244446</ele>
<time>2013-06-14T06:21:07.998Z</time>
</trkpt>
<trkpt lat="31.7762070" lon="35.1083940">
<ele>569.244446</ele>
<time>2013-06-14T06:21:18.996Z</time>
</trkpt>
<trkpt lat="31.7762580" lon="35.1086870">
<ele>568.756775</ele>
<time>2013-06-14T06:21:30.997Z</time>
</trkpt>
<trkpt lat="31.7762990" lon="35.1089680">
<ele>569.732117</ele>
<time>2013-06-14T06:21:41.996Z</time>
</trkpt>
<trkpt lat="31.7761970" lon="35.1091950">
<ele>570.677063</ele>
<time>2013-06-14T06:21:54.999Z</time>
</trkpt>
<trkpt lat="31.7761460" lon="35.1094810">
<ele>572.109619</ele>
<time>2013-06-14T06:22:08.003Z</time>
</trkpt>
<trkpt lat="31.7761360" lon="35.1095220">
<ele>572.597290</ele>
<time>2013-06-14T06:22:11.001Z</time>
</trkpt>
<trkpt lat="31.7761470" lon="35.1098110">
<ele>574.517517</ele>
<time>2013-06-14T06:22:28.004Z</time>
</trkpt>
<trkpt lat="31.7761610" lon="35.1098820">
<ele>575.005188</ele>
<time>2013-06-14T06:22:31.996Z</time>
</trkpt>
<trkpt lat="31.7761620" lon="35.1099950">
<ele>575.492859</ele>
<time>2013-06-14T06:22:39.003Z</time>
</trkpt>
<trkpt lat="31.7761510" lon="35.1101720">
<ele>576.925476</ele>
<time>2013-06-14T06:22:47.997Z</time>
</trkpt>
<trkpt lat="31.7761990" lon="35.1105930">
<ele>576.925476</ele>
<time>2013-06-14T06:23:02.996Z</time>
</trkpt>
<trkpt lat="31.7763410" lon="35.1110240">
<ele>578.357971</ele>
<time>2013-06-14T06:23:18.004Z</time>
</trkpt>
<trkpt lat="31.7763550" lon="35.1110590">
<ele>579.333374</ele>
<time>2013-06-14T06:23:20.000Z</time>
</trkpt>
<trkpt lat="31.7764190" lon="35.1112210">
<ele>581.253601</ele>
<time>2013-06-14T06:23:32.001Z</time>
</trkpt>
<trkpt lat="31.7764260" lon="35.1112320">
<ele>581.253601</ele>
<time>2013-06-14T06:23:33.003Z</time>
</trkpt>
<trkpt lat="31.7764800" lon="35.1113960">
<ele>582.228943</ele>
<time>2013-06-14T06:23:44.002Z</time>
</trkpt>
<trkpt lat="31.7764920" lon="35.1114230">
<ele>583.173828</ele>
<time>2013-06-14T06:23:45.997Z</time>
</trkpt>
<trkpt lat="31.7765360" lon="35.1116300">
<ele>584.149170</ele>
<time>2013-06-14T06:23:59.001Z</time>
</trkpt>
<trkpt lat="31.7765540" lon="35.1116800">
<ele>584.149170</ele>
<time>2013-06-14T06:24:03.001Z</time>
</trkpt>
<trkpt lat="31.7765840" lon="35.1117660">
<ele>585.094055</ele>
<time>2013-06-14T06:24:08.997Z</time>
</trkpt>
<trkpt lat="31.7766410" lon="35.1119270">
<ele>586.526672</ele>
<time>2013-06-14T06:24:19.996Z</time>
</trkpt>
<trkpt lat="31.7766550" lon="35.1119870">
<ele>586.526672</ele>
<time>2013-06-14T06:24:23.996Z</time>
</trkpt>
<trkpt lat="31.7767160" lon="35.1121430">
<ele>587.502014</ele>
<time>2013-06-14T06:24:35.004Z</time>
</trkpt>
<trkpt lat="31.7767700" lon="35.1124080">
<ele>588.965027</ele>
<time>2013-06-14T06:24:50.996Z</time>
</trkpt>
<trkpt lat="31.7768420" lon="35.1126810">
<ele>589.422241</ele>
<time>2013-06-14T06:25:06.997Z</time>
</trkpt>
<trkpt lat="31.7769310" lon="35.1129030">
<ele>591.830139</ele>
<time>2013-06-14T06:25:21.996Z</time>
</trkpt>
<trkpt lat="31.7770270" lon="35.1131070">
<ele>593.262756</ele>
<time>2013-06-14T06:25:36.002Z</time>
</trkpt>
<trkpt lat="31.7770690" lon="35.1131810">
<ele>593.750427</ele>
<time>2013-06-14T06:25:40.996Z</time>
</trkpt>
<trkpt lat="31.7771350" lon="35.1134030">
<ele>594.695251</ele>
<time>2013-06-14T06:25:55.001Z</time>
</trkpt>
<trkpt lat="31.7771630" lon="35.1136890">
<ele>594.695251</ele>
<time>2013-06-14T06:26:08.998Z</time>
</trkpt>
<trkpt lat="31.7771920" lon="35.1138420">
<ele>595.182922</ele>
<time>2013-06-14T06:26:16.999Z</time>
</trkpt>
<trkpt lat="31.7772260" lon="35.1141430">
<ele>596.158325</ele>
<time>2013-06-14T06:26:31.004Z</time>
</trkpt>
<trkpt lat="31.7772870" lon="35.1144550">
<ele>597.133667</ele>
<time>2013-06-14T06:26:46.003Z</time>
</trkpt>
<trkpt lat="31.7773650" lon="35.1146100">
<ele>598.078552</ele>
<time>2013-06-14T06:26:56.000Z</time>
</trkpt>
<trkpt lat="31.7774010" lon="35.1146880">
<ele>598.566284</ele>
<time>2013-06-14T06:27:01.002Z</time>
</trkpt>
<trkpt lat="31.7774690" lon="35.1149560">
<ele>599.998779</ele>
<time>2013-06-14T06:27:14.999Z</time>
</trkpt>
<trkpt lat="31.7774850" lon="35.1150170">
<ele>599.511108</ele>
<time>2013-06-14T06:27:17.997Z</time>
</trkpt>
<trkpt lat="31.7775020" lon="35.1152070">
<ele>600.974121</ele>
<time>2013-06-14T06:27:27.000Z</time>
</trkpt>
<trkpt lat="31.7775720" lon="35.1155120">
<ele>601.919067</ele>
<time>2013-06-14T06:27:41.999Z</time>
</trkpt>
<trkpt lat="31.7775730" lon="35.1155460">
<ele>601.919067</ele>
<time>2013-06-14T06:27:44.004Z</time>
</trkpt>
<trkpt lat="31.7776340" lon="35.1158760">
<ele>602.894409</ele>
<time>2013-06-14T06:28:00.998Z</time>
</trkpt>
<trkpt lat="31.7776390" lon="35.1160410">
<ele>604.326965</ele>
<time>2013-06-14T06:28:08.999Z</time>
</trkpt>
<trkpt lat="31.7775860" lon="35.1163060">
<ele>605.302307</ele>
<time>2013-06-14T06:28:22.996Z</time>
</trkpt>
<trkpt lat="31.7774080" lon="35.1165760">
<ele>605.302307</ele>
<time>2013-06-14T06:28:37.001Z</time>
</trkpt>
<trkpt lat="31.7773020" lon="35.1166930">
<ele>606.734863</ele>
<time>2013-06-14T06:29:40.998Z</time>
</trkpt>
<trkpt lat="31.7772050" lon="35.1167760">
<ele>610.087646</ele>
<time>2013-06-14T06:34:10.998Z</time>
</trkpt>
<trkpt lat="31.7772040" lon="35.1167060">
<ele>611.063049</ele>
<time>2013-06-14T06:34:33.997Z</time>
</trkpt>
<trkpt lat="31.7772050" lon="35.1166690">
<ele>611.550720</ele>
<time>2013-06-14T06:34:59.002Z</time>
</trkpt>
<trkpt lat="31.7772250" lon="35.1165020">
<ele>611.550720</ele>
<time>2013-06-14T06:35:58.998Z</time>
</trkpt>
<trkpt lat="31.7772890" lon="35.1163520">
<ele>611.063049</ele>
<time>2013-06-14T06:36:05.996Z</time>
</trkpt>
<trkpt lat="31.7773630" lon="35.1161420">
<ele>610.575317</ele>
<time>2013-06-14T06:36:17.997Z</time>
</trkpt>
<trkpt lat="31.7773870" lon="35.1158930">
<ele>610.575317</ele>
<time>2013-06-14T06:36:25.998Z</time>
</trkpt>
<trkpt lat="31.7772550" lon="35.1154910">
<ele>611.063049</ele>
<time>2013-06-14T06:36:40.997Z</time>
</trkpt>
<trkpt lat="31.7771360" lon="35.1152950">
<ele>614.415833</ele>
<time>2013-06-14T06:36:52.998Z</time>
</trkpt>
<trkpt lat="31.7769570" lon="35.1150800">
<ele>614.415833</ele>
<time>2013-06-14T06:37:07.003Z</time>
</trkpt>
<trkpt lat="31.7768420" lon="35.1147390">
<ele>614.903503</ele>
<time>2013-06-14T06:37:19.004Z</time>
</trkpt>
<trkpt lat="31.7767410" lon="35.1142190">
<ele>613.928162</ele>
<time>2013-06-14T06:37:31.999Z</time>
</trkpt>
<trkpt lat="31.7766050" lon="35.1137370">
<ele>613.928162</ele>
<time>2013-06-14T06:37:44.000Z</time>
</trkpt>
<trkpt lat="31.7763870" lon="35.1132990">
<ele>613.928162</ele>
<time>2013-06-14T06:37:56.001Z</time>
</trkpt>
<trkpt lat="31.7761900" lon="35.1129800">
<ele>614.903503</ele>
<time>2013-06-14T06:38:09.997Z</time>
</trkpt>
<trkpt lat="31.7760670" lon="35.1128320">
<ele>617.311462</ele>
<time>2013-06-14T06:38:21.998Z</time>
</trkpt>
<trkpt lat="31.7760300" lon="35.1127910">
<ele>617.768677</ele>
<time>2013-06-14T06:38:25.999Z</time>
</trkpt>
<trkpt lat="31.7758350" lon="35.1123610">
<ele>615.848389</ele>
<time>2013-06-14T06:38:39.002Z</time>
</trkpt>
<trkpt lat="31.7755500" lon="35.1117090">
<ele>614.415833</ele>
<time>2013-06-14T06:38:51.996Z</time>
</trkpt>
<trkpt lat="31.7754280" lon="35.1114040">
<ele>612.983276</ele>
<time>2013-06-14T06:38:58.001Z</time>
</trkpt>
<trkpt lat="31.7753460" lon="35.1112250">
<ele>612.495605</ele>
<time>2013-06-14T06:39:02.002Z</time>
</trkpt>
<trkpt lat="31.7750050" lon="35.1108680">
<ele>612.007935</ele>
<time>2013-06-14T06:39:14.996Z</time>
</trkpt>
<trkpt lat="31.7748760" lon="35.1107920">
<ele>612.495605</ele>
<time>2013-06-14T06:39:22.003Z</time>
</trkpt>
<trkpt lat="31.7746820" lon="35.1107910">
<ele>614.903503</ele>
<time>2013-06-14T06:39:37.996Z</time>
</trkpt>
<trkpt lat="31.7746130" lon="35.1107660">
<ele>616.336060</ele>
<time>2013-06-14T06:39:44.001Z</time>
</trkpt>
<trkpt lat="31.7745630" lon="35.1105840">
<ele>617.311462</ele>
<time>2013-06-14T06:39:54.999Z</time>
</trkpt>
<trkpt lat="31.7746180" lon="35.1104580">
<ele>618.744019</ele>
<time>2013-06-14T06:40:03.000Z</time>
</trkpt>
<trkpt lat="31.7746400" lon="35.1103200">
<ele>620.176575</ele>
<time>2013-06-14T06:40:13.999Z</time>
</trkpt>
<trkpt lat="31.7746460" lon="35.1102250">
<ele>621.639587</ele>
<time>2013-06-14T06:40:20.997Z</time>
</trkpt>
<trkpt lat="31.7746570" lon="35.1101590">
<ele>622.584473</ele>
<time>2013-06-14T06:40:24.997Z</time>
</trkpt>
<trkpt lat="31.7746570" lon="35.1101290">
<ele>622.584473</ele>
<time>2013-06-14T06:40:27.002Z</time>
</trkpt>
<trkpt lat="31.7746930" lon="35.1098680">
<ele>624.017029</ele>
<time>2013-06-14T06:40:43.997Z</time>
</trkpt>
<trkpt lat="31.7747010" lon="35.1097220">
<ele>624.504700</ele>
<time>2013-06-14T06:40:54.002Z</time>
</trkpt>
<trkpt lat="31.7747170" lon="35.1094610">
<ele>627.400269</ele>
<time>2013-06-14T06:41:10.997Z</time>
</trkpt>
<trkpt lat="31.7747180" lon="35.1093950">
<ele>626.912659</ele>
<time>2013-06-14T06:41:14.997Z</time>
</trkpt>
<trkpt lat="31.7747230" lon="35.1092840">
<ele>627.400269</ele>
<time>2013-06-14T06:41:21.002Z</time>
</trkpt>
<trkpt lat="31.7747280" lon="35.1090940">
<ele>627.888000</ele>
<time>2013-06-14T06:41:32.001Z</time>
</trkpt>
<trkpt lat="31.7747320" lon="35.1090140">
<ele>627.888000</ele>
<time>2013-06-14T06:41:37.003Z</time>
</trkpt>
<trkpt lat="31.7747330" lon="35.1089070">
<ele>629.808228</ele>
<time>2013-06-14T06:41:44.002Z</time>
</trkpt>
<trkpt lat="31.7747570" lon="35.1088630">
<ele>630.265442</ele>
<time>2013-06-14T06:41:48.002Z</time>
</trkpt>
<trkpt lat="31.7747800" lon="35.1088080">
<ele>630.753113</ele>
<time>2013-06-14T06:41:52.002Z</time>
</trkpt>
<trkpt lat="31.7749410" lon="35.1086120">
<ele>631.240784</ele>
<time>2013-06-14T06:42:08.004Z</time>
</trkpt>
<trkpt lat="31.7750940" lon="35.1083900">
<ele>632.185730</ele>
<time>2013-06-14T06:42:23.003Z</time>
</trkpt>
<trkpt lat="31.7751980" lon="35.1079630">
<ele>631.240784</ele>
<time>2013-06-14T06:42:35.004Z</time>
</trkpt>
<trkpt lat="31.7752000" lon="35.1078020">
<ele>630.265442</ele>
<time>2013-06-14T06:42:38.002Z</time>
</trkpt>
<trkpt lat="31.7751850" lon="35.1076990">
<ele>630.265442</ele>
<time>2013-06-14T06:42:39.997Z</time>
</trkpt>
<trkpt lat="31.7751430" lon="35.1072110">
<ele>629.808228</ele>
<time>2013-06-14T06:42:50.003Z</time>
</trkpt>
<trkpt lat="31.7751370" lon="35.1070540">
<ele>628.832886</ele>
<time>2013-06-14T06:42:53.001Z</time>
</trkpt>
<trkpt lat="31.7751320" lon="35.1066300">
<ele>625.480103</ele>
<time>2013-06-14T06:42:58.997Z</time>
</trkpt>
<trkpt lat="31.7751120" lon="35.1064720">
<ele>624.504700</ele>
<time>2013-06-14T06:43:01.001Z</time>
</trkpt>
<trkpt lat="31.7750610" lon="35.1060130">
<ele>624.504700</ele>
<time>2013-06-14T06:43:06.997Z</time>
</trkpt>
<trkpt lat="31.7749880" lon="35.1057780">
<ele>624.504700</ele>
<time>2013-06-14T06:43:10.998Z</time>
</trkpt>
<trkpt lat="31.7746390" lon="35.1053370">
<ele>626.424927</ele>
<time>2013-06-14T06:43:25.003Z</time>
</trkpt>
<trkpt lat="31.7745850" lon="35.1049270">
<ele>626.912659</ele>
<time>2013-06-14T06:43:35.000Z</time>
</trkpt>
<trkpt lat="31.7743620" lon="35.1045050">
<ele>628.345215</ele>
<time>2013-06-14T06:43:48.996Z</time>
</trkpt>
<trkpt lat="31.7741630" lon="35.1041970">
<ele>627.400269</ele>
<time>2013-06-14T06:44:02.000Z</time>
</trkpt>
<trkpt lat="31.7738560" lon="35.1038650">
<ele>624.017029</ele>
<time>2013-06-14T06:44:14.001Z</time>
</trkpt>
<trkpt lat="31.7735200" lon="35.1035340">
<ele>621.639587</ele>
<time>2013-06-14T06:44:22.001Z</time>
</trkpt>
<trkpt lat="31.7730930" lon="35.1033080">
<ele>618.256348</ele>
<time>2013-06-14T06:44:31.998Z</time>
</trkpt>
<trkpt lat="31.7729530" lon="35.1032690">
<ele>616.823730</ele>
<time>2013-06-14T06:44:34.002Z</time>
</trkpt>
<trkpt lat="31.7725900" lon="35.1030540">
<ele>615.391174</ele>
<time>2013-06-14T06:44:39.998Z</time>
</trkpt>
<trkpt lat="31.7721750" lon="35.1029480">
<ele>616.336060</ele>
<time>2013-06-14T06:44:50.004Z</time>
</trkpt>
<trkpt lat="31.7719350" lon="35.1028060">
<ele>612.983276</ele>
<time>2013-06-14T06:44:56.000Z</time>
</trkpt>
<trkpt lat="31.7718850" lon="35.1027750">
<ele>612.495605</ele>
<time>2013-06-14T06:44:57.002Z</time>
</trkpt>
<trkpt lat="31.7716590" lon="35.1026220">
<ele>610.575317</ele>
<time>2013-06-14T06:45:01.002Z</time>
</trkpt>
<trkpt lat="31.7715770" lon="35.1025590">
<ele>610.087646</ele>
<time>2013-06-14T06:45:02.998Z</time>
</trkpt>
<trkpt lat="31.7714960" lon="35.1025070">
<ele>610.087646</ele>
<time>2013-06-14T06:45:05.003Z</time>
</trkpt>
<trkpt lat="31.7709340" lon="35.1024470">
<ele>606.734863</ele>
<time>2013-06-14T06:45:17.004Z</time>
</trkpt>
<trkpt lat="31.7707950" lon="35.1024170">
<ele>605.302307</ele>
<time>2013-06-14T06:45:20.002Z</time>
</trkpt>
<trkpt lat="31.7707470" lon="35.1024060">
<ele>604.326965</ele>
<time>2013-06-14T06:45:21.004Z</time>
</trkpt>
<trkpt lat="31.7704300" lon="35.1024210">
<ele>600.974121</ele>
<time>2013-06-14T06:45:27.000Z</time>
</trkpt>
<trkpt lat="31.7702700" lon="35.1024560">
<ele>600.486450</ele>
<time>2013-06-14T06:45:29.998Z</time>
</trkpt>
<trkpt lat="31.7696270" lon="35.1026480">
<ele>598.078552</ele>
<time>2013-06-14T06:45:40.997Z</time>
</trkpt>
<trkpt lat="31.7693030" lon="35.1028890">
<ele>600.974121</ele>
<time>2013-06-14T06:45:51.002Z</time>
</trkpt>
<trkpt lat="31.7688470" lon="35.1031550">
<ele>599.511108</ele>
<time>2013-06-14T06:46:03.996Z</time>
</trkpt>
<trkpt lat="31.7687170" lon="35.1032120">
<ele>598.078552</ele>
<time>2013-06-14T06:46:06.001Z</time>
</trkpt>
<trkpt lat="31.7685740" lon="35.1032790">
<ele>596.645996</ele>
<time>2013-06-14T06:46:07.997Z</time>
</trkpt>
<trkpt lat="31.7684620" lon="35.1033630">
<ele>597.133667</ele>
<time>2013-06-14T06:46:10.001Z</time>
</trkpt>
<trkpt lat="31.7681630" lon="35.1037800">
<ele>596.158325</ele>
<time>2013-06-14T06:46:21.000Z</time>
</trkpt>
<trkpt lat="31.7681100" lon="35.1040020">
<ele>593.750427</ele>
<time>2013-06-14T06:46:26.003Z</time>
</trkpt>
<trkpt lat="31.7680690" lon="35.1042220">
<ele>590.854797</ele>
<time>2013-06-14T06:46:31.999Z</time>
</trkpt>
<trkpt lat="31.7680440" lon="35.1044280">
<ele>588.446899</ele>
<time>2013-06-14T06:46:38.004Z</time>
</trkpt>
<trkpt lat="31.7680380" lon="35.1046880">
<ele>585.094055</ele>
<time>2013-06-14T06:46:44.000Z</time>
</trkpt>
<trkpt lat="31.7680410" lon="35.1049490">
<ele>581.741272</ele>
<time>2013-06-14T06:46:49.996Z</time>
</trkpt>
<trkpt lat="31.7680200" lon="35.1051060">
<ele>579.821045</ele>
<time>2013-06-14T06:46:53.996Z</time>
</trkpt>
<trkpt lat="31.7678200" lon="35.1051110">
<ele>578.845642</ele>
<time>2013-06-14T06:47:00.001Z</time>
</trkpt>
<trkpt lat="31.7677590" lon="35.1050730">
<ele>579.821045</ele>
<time>2013-06-14T06:47:04.001Z</time>
</trkpt>
<trkpt lat="31.7676380" lon="35.1050120">
<ele>581.253601</ele>
<time>2013-06-14T06:47:13.004Z</time>
</trkpt>
<trkpt lat="31.7676050" lon="35.1049910">
<ele>581.741272</ele>
<time>2013-06-14T06:47:15.000Z</time>
</trkpt>
<trkpt lat="31.7674160" lon="35.1048310">
<ele>584.149170</ele>
<time>2013-06-14T06:47:28.997Z</time>
</trkpt>
<trkpt lat="31.7671430" lon="35.1046490">
<ele>584.606384</ele>
<time>2013-06-14T06:47:44.998Z</time>
</trkpt>
<trkpt lat="31.7668560" lon="35.1045760">
<ele>585.094055</ele>
<time>2013-06-14T06:47:59.004Z</time>
</trkpt>
<trkpt lat="31.7665580" lon="35.1046670">
<ele>586.069458</ele>
<time>2013-06-14T06:48:14.003Z</time>
</trkpt>
<trkpt lat="31.7661210" lon="35.1047880">
<ele>584.149170</ele>
<time>2013-06-14T06:48:27.999Z</time>
</trkpt>
<trkpt lat="31.7659960" lon="35.1047950">
<ele>583.661499</ele>
<time>2013-06-14T06:48:30.004Z</time>
</trkpt>
<trkpt lat="31.7657000" lon="35.1045930">
<ele>582.686157</ele>
<time>2013-06-14T06:48:36.000Z</time>
</trkpt>
<trkpt lat="31.7654230" lon="35.1040090">
<ele>583.173828</ele>
<time>2013-06-14T06:48:49.997Z</time>
</trkpt>
<trkpt lat="31.7650070" lon="35.1033810">
<ele>580.765930</ele>
<time>2013-06-14T06:49:04.002Z</time>
</trkpt>
<trkpt lat="31.7645990" lon="35.1029480">
<ele>577.900818</ele>
<time>2013-06-14T06:49:12.996Z</time>
</trkpt>
<trkpt lat="31.7645480" lon="35.1029100">
<ele>577.413147</ele>
<time>2013-06-14T06:49:13.999Z</time>
</trkpt>
<trkpt lat="31.7643020" lon="35.1027390">
<ele>573.572632</ele>
<time>2013-06-14T06:49:19.001Z</time>
</trkpt>
<trkpt lat="31.7641820" lon="35.1026710">
<ele>570.677063</ele>
<time>2013-06-14T06:49:20.997Z</time>
</trkpt>
<trkpt lat="31.7639050" lon="35.1025980">
<ele>567.811951</ele>
<time>2013-06-14T06:49:24.997Z</time>
</trkpt>
<trkpt lat="31.7638320" lon="35.1025830">
<ele>568.269104</ele>
<time>2013-06-14T06:49:26.000Z</time>
</trkpt>
<trkpt lat="31.7636250" lon="35.1024950">
<ele>566.348877</ele>
<time>2013-06-14T06:49:28.998Z</time>
</trkpt>
<trkpt lat="31.7635710" lon="35.1024560">
<ele>566.348877</ele>
<time>2013-06-14T06:49:30.000Z</time>
</trkpt>
<trkpt lat="31.7632960" lon="35.1022010">
<ele>562.508423</ele>
<time>2013-06-14T06:49:35.003Z</time>
</trkpt>
<trkpt lat="31.7628440" lon="35.1017990">
<ele>559.125122</ele>
<time>2013-06-14T06:49:43.003Z</time>
</trkpt>
<trkpt lat="31.7625830" lon="35.1015230">
<ele>556.260010</ele>
<time>2013-06-14T06:49:50.002Z</time>
</trkpt>
<trkpt lat="31.7625140" lon="35.1014570">
<ele>555.315125</ele>
<time>2013-06-14T06:49:51.997Z</time>
</trkpt>
<trkpt lat="31.7623320" lon="35.1012730">
<ele>552.907227</ele>
<time>2013-06-14T06:49:55.998Z</time>
</trkpt>
<trkpt lat="31.7620840" lon="35.1011260">
<ele>551.931885</ele>
<time>2013-06-14T06:49:59.998Z</time>
</trkpt>
<trkpt lat="31.7615560" lon="35.1010020">
<ele>551.444153</ele>
<time>2013-06-14T06:50:09.001Z</time>
</trkpt>
<trkpt lat="31.7613960" lon="35.1009960">
<ele>550.956482</ele>
<time>2013-06-14T06:50:11.999Z</time>
</trkpt>
<trkpt lat="31.7611590" lon="35.1011950">
<ele>551.931885</ele>
<time>2013-06-14T06:50:18.997Z</time>
</trkpt>
<trkpt lat="31.7610480" lon="35.1015370">
<ele>550.499268</ele>
<time>2013-06-14T06:50:25.002Z</time>
</trkpt>
<trkpt lat="31.7609940" lon="35.1018020">
<ele>550.499268</ele>
<time>2013-06-14T06:50:29.996Z</time>
</trkpt>
<trkpt lat="31.7609250" lon="35.1020390">
<ele>549.036255</ele>
<time>2013-06-14T06:50:34.999Z</time>
</trkpt>
<trkpt lat="31.7608740" lon="35.1021790">
<ele>547.603699</ele>
<time>2013-06-14T06:50:37.997Z</time>
</trkpt>
<trkpt lat="31.7608590" lon="35.1022260">
<ele>546.658813</ele>
<time>2013-06-14T06:50:38.999Z</time>
</trkpt>
<trkpt lat="31.7608230" lon="35.1024110">
<ele>544.708069</ele>
<time>2013-06-14T06:50:41.997Z</time>
</trkpt>
<trkpt lat="31.7607930" lon="35.1026670">
<ele>542.330627</ele>
<time>2013-06-14T06:50:45.004Z</time>
</trkpt>
<trkpt lat="31.7607280" lon="35.1029650">
<ele>542.330627</ele>
<time>2013-06-14T06:50:49.004Z</time>
</trkpt>
<trkpt lat="31.7606800" lon="35.1034820">
<ele>541.842957</ele>
<time>2013-06-14T06:50:56.996Z</time>
</trkpt>
<trkpt lat="31.7606680" lon="35.1037210">
<ele>540.410400</ele>
<time>2013-06-14T06:51:00.996Z</time>
</trkpt>
<trkpt lat="31.7607050" lon="35.1039910">
<ele>538.947327</ele>
<time>2013-06-14T06:51:04.997Z</time>
</trkpt>
<trkpt lat="31.7607020" lon="35.1041360">
<ele>538.002502</ele>
<time>2013-06-14T06:51:07.001Z</time>
</trkpt>
<trkpt lat="31.7606070" lon="35.1044180">
<ele>537.514771</ele>
<time>2013-06-14T06:51:12.004Z</time>
</trkpt>
<trkpt lat="31.7605700" lon="35.1045330">
<ele>536.539429</ele>
<time>2013-06-14T06:51:14.000Z</time>
</trkpt>
<trkpt lat="31.7605570" lon="35.1046970">
<ele>534.619202</ele>
<time>2013-06-14T06:51:16.998Z</time>
</trkpt>
<trkpt lat="31.7605720" lon="35.1048250">
<ele>532.698975</ele>
<time>2013-06-14T06:51:19.996Z</time>
</trkpt>
<trkpt lat="31.7605830" lon="35.1051110">
<ele>529.833862</ele>
<time>2013-06-14T06:51:28.999Z</time>
</trkpt>
<trkpt lat="31.7605180" lon="35.1052080">
<ele>527.425903</ele>
<time>2013-06-14T06:51:34.001Z</time>
</trkpt>
<trkpt lat="31.7604450" lon="35.1052960">
<ele>524.530334</ele>
<time>2013-06-14T06:51:39.004Z</time>
</trkpt>
<trkpt lat="31.7603450" lon="35.1055060">
<ele>521.177551</ele>
<time>2013-06-14T06:51:46.002Z</time>
</trkpt>
<trkpt lat="31.7603310" lon="35.1057060">
<ele>518.769592</ele>
<time>2013-06-14T06:51:50.996Z</time>
</trkpt>
<trkpt lat="31.7603410" lon="35.1058220">
<ele>516.849365</ele>
<time>2013-06-14T06:51:53.001Z</time>
</trkpt>
<trkpt lat="31.7604050" lon="35.1061390">
<ele>515.386353</ele>
<time>2013-06-14T06:51:58.003Z</time>
</trkpt>
<trkpt lat="31.7603270" lon="35.1065350">
<ele>514.929138</ele>
<time>2013-06-14T06:52:05.002Z</time>
</trkpt>
<trkpt lat="31.7600980" lon="35.1069580">
<ele>514.441467</ele>
<time>2013-06-14T06:52:14.998Z</time>
</trkpt>
<trkpt lat="31.7600400" lon="35.1071040">
<ele>514.441467</ele>
<time>2013-06-14T06:52:17.996Z</time>
</trkpt>
<trkpt lat="31.7598580" lon="35.1077790">
<ele>515.386353</ele>
<time>2013-06-14T06:52:33.004Z</time>
</trkpt>
<trkpt lat="31.7597790" lon="35.1079550">
<ele>514.929138</ele>
<time>2013-06-14T06:52:37.998Z</time>
</trkpt>
<trkpt lat="31.7597470" lon="35.1080860">
<ele>514.929138</ele>
<time>2013-06-14T06:52:40.996Z</time>
</trkpt>
<trkpt lat="31.7595570" lon="35.1083830">
<ele>513.466064</ele>
<time>2013-06-14T06:52:48.003Z</time>
</trkpt>
<trkpt lat="31.7592460" lon="35.1085230">
<ele>515.386353</ele>
<time>2013-06-14T06:53:00.997Z</time>
</trkpt>
<trkpt lat="31.7588630" lon="35.1086500">
<ele>517.337036</ele>
<time>2013-06-14T06:53:24.999Z</time>
</trkpt>
<trkpt lat="31.7585510" lon="35.1087190">
<ele>518.769592</ele>
<time>2013-06-14T06:53:46.003Z</time>
</trkpt>
<trkpt lat="31.7583040" lon="35.1086890">
<ele>520.202148</ele>
<time>2013-06-14T06:53:58.998Z</time>
</trkpt>
<trkpt lat="31.7579660" lon="35.1085250">
<ele>521.665222</ele>
<time>2013-06-14T06:54:16.001Z</time>
</trkpt>
<trkpt lat="31.7577080" lon="35.1084000">
<ele>523.585449</ele>
<time>2013-06-14T06:54:32.003Z</time>
</trkpt>
<trkpt lat="31.7574610" lon="35.1082810">
<ele>525.018005</ele>
<time>2013-06-14T06:54:48.004Z</time>
</trkpt>
<trkpt lat="31.7574070" lon="35.1083070">
<ele>525.018005</ele>
<time>2013-06-14T06:54:52.004Z</time>
</trkpt>
<trkpt lat="31.7573830" lon="35.1084460">
<ele>526.450562</ele>
<time>2013-06-14T06:54:59.996Z</time>
</trkpt>
<trkpt lat="31.7574750" lon="35.1086570">
<ele>528.370789</ele>
<time>2013-06-14T06:55:17.000Z</time>
</trkpt>
<trkpt lat="31.7575340" lon="35.1087040">
<ele>528.370789</ele>
<time>2013-06-14T06:55:22.002Z</time>
</trkpt>
<trkpt lat="31.7577190" lon="35.1088960">
<ele>529.346130</ele>
<time>2013-06-14T06:55:38.004Z</time>
</trkpt>
<trkpt lat="31.7579430" lon="35.1092740">
<ele>530.291077</ele>
<time>2013-06-14T06:55:53.003Z</time>
</trkpt>
<trkpt lat="31.7583150" lon="35.1094890">
<ele>529.833862</ele>
<time>2013-06-14T06:56:08.002Z</time>
</trkpt>
<trkpt lat="31.7587810" lon="35.1095080">
<ele>530.778748</ele>
<time>2013-06-14T06:56:24.003Z</time>
</trkpt>
<trkpt lat="31.7589920" lon="35.1095780">
<ele>532.698975</ele>
<time>2013-06-14T06:56:39.002Z</time>
</trkpt>
<trkpt lat="31.7590200" lon="35.1096220">
<ele>533.186646</ele>
<time>2013-06-14T06:56:43.002Z</time>
</trkpt>
<trkpt lat="31.7590460" lon="35.1096950">
<ele>534.619202</ele>
<time>2013-06-14T06:56:48.998Z</time>
</trkpt>
<trkpt lat="31.7590310" lon="35.1097580">
<ele>535.594543</ele>
<time>2013-06-14T06:56:54.001Z</time>
</trkpt>
<trkpt lat="31.7589830" lon="35.1098360">
<ele>537.027100</ele>
<time>2013-06-14T06:57:00.999Z</time>
</trkpt>
<trkpt lat="31.7587570" lon="35.1099590">
<ele>538.002502</ele>
<time>2013-06-14T06:57:18.996Z</time>
</trkpt>
<trkpt lat="31.7584560" lon="35.1100780">
<ele>537.514771</ele>
<time>2013-06-14T06:57:34.998Z</time>
</trkpt>
<trkpt lat="31.7582170" lon="35.1101650">
<ele>537.514771</ele>
<time>2013-06-14T06:57:46.999Z</time>
</trkpt>
<trkpt lat="31.7581690" lon="35.1104250">
<ele>538.002502</ele>
<time>2013-06-14T06:57:59.000Z</time>
</trkpt>
<trkpt lat="31.7583650" lon="35.1104420">
<ele>540.410400</ele>
<time>2013-06-14T06:58:12.996Z</time>
</trkpt>
<trkpt lat="31.7585700" lon="35.1103570">
<ele>542.330627</ele>
<time>2013-06-14T06:58:28.004Z</time>
</trkpt>
<trkpt lat="31.7585950" lon="35.1103680">
<ele>542.787842</ele>
<time>2013-06-14T06:58:30.000Z</time>
</trkpt>
<trkpt lat="31.7587510" lon="35.1105330">
<ele>546.171143</ele>
<time>2013-06-14T06:58:46.001Z</time>
</trkpt>
<trkpt lat="31.7588780" lon="35.1106800">
<ele>549.036255</ele>
<time>2013-06-14T06:58:59.998Z</time>
</trkpt>
<trkpt lat="31.7588980" lon="35.1107030">
<ele>549.523926</ele>
<time>2013-06-14T06:59:02.996Z</time>
</trkpt>
<trkpt lat="31.7589570" lon="35.1108380">
<ele>551.444153</ele>
<time>2013-06-14T06:59:15.999Z</time>
</trkpt>
<trkpt lat="31.7589480" lon="35.1108800">
<ele>551.444153</ele>
<time>2013-06-14T06:59:20.000Z</time>
</trkpt>
<trkpt lat="31.7588780" lon="35.1110520">
<ele>553.394897</ele>
<time>2013-06-14T06:59:37.003Z</time>
</trkpt>
<trkpt lat="31.7588720" lon="35.1111250">
<ele>554.339722</ele>
<time>2013-06-14T06:59:41.997Z</time>
</trkpt>
<trkpt lat="31.7588840" lon="35.1111470">
<ele>554.339722</ele>
<time>2013-06-14T06:59:44.002Z</time>
</trkpt>
<trkpt lat="31.7589130" lon="35.1111860">
<ele>554.827454</ele>
<time>2013-06-14T06:59:48.002Z</time>
</trkpt>
<trkpt lat="31.7589340" lon="35.1112020">
<ele>556.260010</ele>
<time>2013-06-14T06:59:49.998Z</time>
</trkpt>
<trkpt lat="31.7590050" lon="35.1112330">
<ele>557.204895</ele>
<time>2013-06-14T06:59:56.996Z</time>
</trkpt>
<trkpt lat="31.7590440" lon="35.1112280">
<ele>557.692566</ele>
<time>2013-06-14T07:00:00.003Z</time>
</trkpt>
<trkpt lat="31.7591040" lon="35.1112150">
<ele>557.692566</ele>
<time>2013-06-14T07:00:07.001Z</time>
</trkpt>
<trkpt lat="31.7591130" lon="35.1112080">
<ele>557.692566</ele>
<time>2013-06-14T07:00:08.004Z</time>
</trkpt>
<trkpt lat="31.7592460" lon="35.1111730">
<ele>559.612793</ele>
<time>2013-06-14T07:00:20.998Z</time>
</trkpt>
<trkpt lat="31.7593700" lon="35.1111210">
<ele>560.588135</ele>
<time>2013-06-14T07:00:32.999Z</time>
</trkpt>
<trkpt lat="31.7595510" lon="35.1109560">
<ele>560.588135</ele>
<time>2013-06-14T07:00:47.998Z</time>
</trkpt>
<trkpt lat="31.7597390" lon="35.1109000">
<ele>561.563538</ele>
<time>2013-06-14T07:01:02.997Z</time>
</trkpt>
<trkpt lat="31.7598900" lon="35.1108180">
<ele>561.563538</ele>
<time>2013-06-14T07:01:14.998Z</time>
</trkpt>
<trkpt lat="31.7600460" lon="35.1107520">
<ele>562.020752</ele>
<time>2013-06-14T07:01:26.999Z</time>
</trkpt>
<trkpt lat="31.7602850" lon="35.1105860">
<ele>563.483765</ele>
<time>2013-06-14T07:01:44.996Z</time>
</trkpt>
<trkpt lat="31.7604960" lon="35.1104430">
<ele>563.940918</ele>
<time>2013-06-14T07:02:00.997Z</time>
</trkpt>
<trkpt lat="31.7605200" lon="35.1104290">
<ele>564.428650</ele>
<time>2013-06-14T07:02:03.002Z</time>
</trkpt>
<trkpt lat="31.7605350" lon="35.1104230">
<ele>564.916321</ele>
<time>2013-06-14T07:02:04.004Z</time>
</trkpt>
<trkpt lat="31.7607920" lon="35.1102220">
<ele>564.916321</ele>
<time>2013-06-14T07:02:23.004Z</time>
</trkpt>
<trkpt lat="31.7609920" lon="35.1100590">
<ele>566.348877</ele>
<time>2013-06-14T07:02:38.996Z</time>
</trkpt>
<trkpt lat="31.7611760" lon="35.1098980">
<ele>567.811951</ele>
<time>2013-06-14T07:02:54.997Z</time>
</trkpt>
<trkpt lat="31.7613800" lon="35.1097290">
<ele>569.244446</ele>
<time>2013-06-14T07:03:12.001Z</time>
</trkpt>
<trkpt lat="31.7615200" lon="35.1095030">
<ele>570.677063</ele>
<time>2013-06-14T07:03:28.002Z</time>
</trkpt>
<trkpt lat="31.7615520" lon="35.1093860">
<ele>571.652405</ele>
<time>2013-06-14T07:03:35.001Z</time>
</trkpt>
<trkpt lat="31.7615820" lon="35.1093270">
<ele>571.652405</ele>
<time>2013-06-14T07:03:39.001Z</time>
</trkpt>
<trkpt lat="31.7616100" lon="35.1092210">
<ele>572.597290</ele>
<time>2013-06-14T07:03:45.999Z</time>
</trkpt>
<trkpt lat="31.7617230" lon="35.1089440">
<ele>573.572632</ele>
<time>2013-06-14T07:04:04.999Z</time>
</trkpt>
<trkpt lat="31.7617540" lon="35.1088600">
<ele>574.029846</ele>
<time>2013-06-14T07:04:11.004Z</time>
</trkpt>
<trkpt lat="31.7617750" lon="35.1088060">
<ele>575.005188</ele>
<time>2013-06-14T07:04:15.004Z</time>
</trkpt>
<trkpt lat="31.7617850" lon="35.1087690">
<ele>575.005188</ele>
<time>2013-06-14T07:04:17.000Z</time>
</trkpt>
<trkpt lat="31.7618180" lon="35.1086300">
<ele>575.980530</ele>
<time>2013-06-14T07:04:25.000Z</time>
</trkpt>
<trkpt lat="31.7618390" lon="35.1085420">
<ele>575.980530</ele>
<time>2013-06-14T07:04:30.003Z</time>
</trkpt>
<trkpt lat="31.7619220" lon="35.1081670">
<ele>575.980530</ele>
<time>2013-06-14T07:04:46.004Z</time>
</trkpt>
<trkpt lat="31.7619660" lon="35.1077180">
<ele>575.005188</ele>
<time>2013-06-14T07:05:00.001Z</time>
</trkpt>
<trkpt lat="31.7621640" lon="35.1075120">
<ele>576.437744</ele>
<time>2013-06-14T07:05:11.000Z</time>
</trkpt>
<trkpt lat="31.7623540" lon="35.1072740">
<ele>577.413147</ele>
<time>2013-06-14T07:05:24.996Z</time>
</trkpt>
<trkpt lat="31.7622950" lon="35.1068680">
<ele>579.333374</ele>
<time>2013-06-14T07:05:43.002Z</time>
</trkpt>
<trkpt lat="31.7624470" lon="35.1064570">
<ele>579.821045</ele>
<time>2013-06-14T07:06:00.999Z</time>
</trkpt>
<trkpt lat="31.7624420" lon="35.1060300">
<ele>578.845642</ele>
<time>2013-06-14T07:06:14.003Z</time>
</trkpt>
<trkpt lat="31.7623850" lon="35.1058720">
<ele>577.900818</ele>
<time>2013-06-14T07:06:18.003Z</time>
</trkpt>
<trkpt lat="31.7622280" lon="35.1055390">
<ele>574.517517</ele>
<time>2013-06-14T07:06:26.004Z</time>
</trkpt>
<trkpt lat="31.7622040" lon="35.1054920">
<ele>574.517517</ele>
<time>2013-06-14T07:06:26.997Z</time>
</trkpt>
<trkpt lat="31.7620050" lon="35.1050530">
<ele>571.164734</ele>
<time>2013-06-14T07:06:37.002Z</time>
</trkpt>
<trkpt lat="31.7619890" lon="35.1050010">
<ele>571.652405</ele>
<time>2013-06-14T07:06:37.996Z</time>
</trkpt>
<trkpt lat="31.7619630" lon="35.1048840">
<ele>570.189331</ele>
<time>2013-06-14T07:06:40.000Z</time>
</trkpt>
<trkpt lat="31.7619600" lon="35.1048240">
<ele>570.189331</ele>
<time>2013-06-14T07:06:41.003Z</time>
</trkpt>
<trkpt lat="31.7619630" lon="35.1046430">
<ele>570.189331</ele>
<time>2013-06-14T07:06:44.001Z</time>
</trkpt>
<trkpt lat="31.7619620" lon="35.1045940">
<ele>570.189331</ele>
<time>2013-06-14T07:06:45.003Z</time>
</trkpt>
<trkpt lat="31.7619920" lon="35.1042910">
<ele>572.109619</ele>
<time>2013-06-14T07:06:56.002Z</time>
</trkpt>
<trkpt lat="31.7620660" lon="35.1040470">
<ele>575.005188</ele>
<time>2013-06-14T07:07:09.998Z</time>
</trkpt>
<trkpt lat="31.7621280" lon="35.1037820">
<ele>575.492859</ele>
<time>2013-06-14T07:07:24.004Z</time>
</trkpt>
<trkpt lat="31.7621180" lon="35.1034950">
<ele>576.925476</ele>
<time>2013-06-14T07:07:38.001Z</time>
</trkpt>
<trkpt lat="31.7620690" lon="35.1031500">
<ele>577.413147</ele>
<time>2013-06-14T07:07:51.997Z</time>
</trkpt>
<trkpt lat="31.7620810" lon="35.1028150">
<ele>577.413147</ele>
<time>2013-06-14T07:08:06.003Z</time>
</trkpt>
<trkpt lat="31.7622890" lon="35.1027670">
<ele>579.333374</ele>
<time>2013-06-14T07:08:21.002Z</time>
</trkpt>
<trkpt lat="31.7624490" lon="35.1027580">
<ele>581.741272</ele>
<time>2013-06-14T07:08:33.996Z</time>
</trkpt>
<trkpt lat="31.7626160" lon="35.1027670">
<ele>583.661499</ele>
<time>2013-06-14T07:08:48.002Z</time>
</trkpt>
<trkpt lat="31.7626630" lon="35.1027880">
<ele>584.606384</ele>
<time>2013-06-14T07:08:52.002Z</time>
</trkpt>
<trkpt lat="31.7629490" lon="35.1029520">
<ele>594.695251</ele>
<time>2013-06-14T07:10:40.002Z</time>
</trkpt>
<trkpt lat="31.7630970" lon="35.1030380">
<ele>593.750427</ele>
<time>2013-06-14T07:10:52.003Z</time>
</trkpt>
<trkpt lat="31.7633120" lon="35.1032160">
<ele>594.238098</ele>
<time>2013-06-14T07:11:06.000Z</time>
</trkpt>
<trkpt lat="31.7633520" lon="35.1032510">
<ele>594.238098</ele>
<time>2013-06-14T07:11:10.000Z</time>
</trkpt>
<trkpt lat="31.7635020" lon="35.1033420">
<ele>593.262756</ele>
<time>2013-06-14T07:11:23.004Z</time>
</trkpt>
<trkpt lat="31.7636800" lon="35.1034610">
<ele>592.775024</ele>
<time>2013-06-14T07:11:38.003Z</time>
</trkpt>
<trkpt lat="31.7638170" lon="35.1035150">
<ele>593.750427</ele>
<time>2013-06-14T07:11:49.001Z</time>
</trkpt>
<trkpt lat="31.7638410" lon="35.1035180">
<ele>593.750427</ele>
<time>2013-06-14T07:11:50.997Z</time>
</trkpt>
<trkpt lat="31.7640300" lon="35.1035670">
<ele>594.695251</ele>
<time>2013-06-14T07:12:05.996Z</time>
</trkpt>
<trkpt lat="31.7642260" lon="35.1036570">
<ele>596.645996</ele>
<time>2013-06-14T07:12:21.997Z</time>
</trkpt>
<trkpt lat="31.7642580" lon="35.1036960">
<ele>597.133667</ele>
<time>2013-06-14T07:12:25.998Z</time>
</trkpt>
<trkpt lat="31.7643590" lon="35.1038320">
<ele>598.078552</ele>
<time>2013-06-14T07:12:37.999Z</time>
</trkpt>
<trkpt lat="31.7643530" lon="35.1038860">
<ele>598.566284</ele>
<time>2013-06-14T07:12:40.997Z</time>
</trkpt>
<trkpt lat="31.7643660" lon="35.1039360">
<ele>599.511108</ele>
<time>2013-06-14T07:12:44.997Z</time>
</trkpt>
<trkpt lat="31.7644420" lon="35.1041070">
<ele>601.431335</ele>
<time>2013-06-14T07:13:00.998Z</time>
</trkpt>
<trkpt lat="31.7645150" lon="35.1042670">
<ele>603.839294</ele>
<time>2013-06-14T07:13:15.997Z</time>
</trkpt>
<trkpt lat="31.7646010" lon="35.1044400">
<ele>605.759521</ele>
<time>2013-06-14T07:13:31.999Z</time>
</trkpt>
<trkpt lat="31.7646390" lon="35.1044920">
<ele>606.734863</ele>
<time>2013-06-14T07:13:37.001Z</time>
</trkpt>
<trkpt lat="31.7646570" lon="35.1045180">
<ele>606.734863</ele>
<time>2013-06-14T07:13:39.999Z</time>
</trkpt>
<trkpt lat="31.7646750" lon="35.1045740">
<ele>607.222534</ele>
<time>2013-06-14T07:13:44.000Z</time>
</trkpt>
<trkpt lat="31.7646110" lon="35.1046600">
<ele>608.167480</ele>
<time>2013-06-14T07:13:53.003Z</time>
</trkpt>
<trkpt lat="31.7645510" lon="35.1046990">
<ele>609.142822</ele>
<time>2013-06-14T07:13:58.999Z</time>
</trkpt>
<trkpt lat="31.7644770" lon="35.1047520">
<ele>610.087646</ele>
<time>2013-06-14T07:14:06.999Z</time>
</trkpt>
<trkpt lat="31.7644540" lon="35.1047740">
<ele>611.063049</ele>
<time>2013-06-14T07:14:09.997Z</time>
</trkpt>
<trkpt lat="31.7644120" lon="35.1048580">
<ele>612.007935</ele>
<time>2013-06-14T07:14:16.996Z</time>
</trkpt>
<trkpt lat="31.7644130" lon="35.1050860">
<ele>614.415833</ele>
<time>2013-06-14T07:14:33.999Z</time>
</trkpt>
<trkpt lat="31.7644280" lon="35.1052240">
<ele>615.391174</ele>
<time>2013-06-14T07:14:44.998Z</time>
</trkpt>
<trkpt lat="31.7644610" lon="35.1052980">
<ele>616.823730</ele>
<time>2013-06-14T07:14:51.003Z</time>
</trkpt>
<trkpt lat="31.7644790" lon="35.1053390">
<ele>617.311462</ele>
<time>2013-06-14T07:14:54.001Z</time>
</trkpt>
<trkpt lat="31.7644920" lon="35.1054040">
<ele>618.256348</ele>
<time>2013-06-14T07:14:59.004Z</time>
</trkpt>
<trkpt lat="31.7645310" lon="35.1054900">
<ele>619.231689</ele>
<time>2013-06-14T07:15:06.002Z</time>
</trkpt>
<trkpt lat="31.7645650" lon="35.1055420">
<ele>620.664246</ele>
<time>2013-06-14T07:15:11.998Z</time>
</trkpt>
<trkpt lat="31.7645830" lon="35.1056030">
<ele>621.151917</ele>
<time>2013-06-14T07:15:17.001Z</time>
</trkpt>
<trkpt lat="31.7646260" lon="35.1057130">
<ele>622.096802</ele>
<time>2013-06-14T07:15:26.997Z</time>
</trkpt>
<trkpt lat="31.7646680" lon="35.1058920">
<ele>624.504700</ele>
<time>2013-06-14T07:15:42.998Z</time>
</trkpt>
<trkpt lat="31.7647150" lon="35.1060720">
<ele>626.912659</ele>
<time>2013-06-14T07:15:57.997Z</time>
</trkpt>
<trkpt lat="31.7647690" lon="35.1061970">
<ele>628.832886</ele>
<time>2013-06-14T07:16:09.998Z</time>
</trkpt>
<trkpt lat="31.7647190" lon="35.1062830">
<ele>631.240784</ele>
<time>2013-06-14T07:17:01.000Z</time>
</trkpt>
<trkpt lat="31.7645730" lon="35.1063670">
<ele>632.185730</ele>
<time>2013-06-14T07:18:43.998Z</time>
</trkpt>
<trkpt lat="31.7643790" lon="35.1065910">
<ele>633.648682</ele>
<time>2013-06-14T07:19:02.997Z</time>
</trkpt>
<trkpt lat="31.7641550" lon="35.1068180">
<ele>633.648682</ele>
<time>2013-06-14T07:19:18.998Z</time>
</trkpt>
<trkpt lat="31.7640970" lon="35.1068960">
<ele>634.136414</ele>
<time>2013-06-14T07:19:25.003Z</time>
</trkpt>
<trkpt lat="31.7640640" lon="35.1069650">
<ele>634.136414</ele>
<time>2013-06-14T07:19:28.001Z</time>
</trkpt>
<trkpt lat="31.7640350" lon="35.1070140">
<ele>634.136414</ele>
<time>2013-06-14T07:19:29.997Z</time>
</trkpt>
<trkpt lat="31.7637550" lon="35.1075600">
<ele>633.161072</ele>
<time>2013-06-14T07:19:47.001Z</time>
</trkpt>
<trkpt lat="31.7634730" lon="35.1081560">
<ele>633.161072</ele>
<time>2013-06-14T07:20:00.997Z</time>
</trkpt>
<trkpt lat="31.7632740" lon="35.1087030">
<ele>634.624084</ele>
<time>2013-06-14T07:20:16.999Z</time>
</trkpt>
<trkpt lat="31.7631550" lon="35.1093360">
<ele>635.568970</ele>
<time>2013-06-14T07:20:34.002Z</time>
</trkpt>
<trkpt lat="31.7629680" lon="35.1101690">
<ele>635.081299</ele>
<time>2013-06-14T07:20:53.002Z</time>
</trkpt>
<trkpt lat="31.7628930" lon="35.1104030">
<ele>634.624084</ele>
<time>2013-06-14T07:20:58.998Z</time>
</trkpt>
<trkpt lat="31.7626420" lon="35.1109600">
<ele>635.081299</ele>
<time>2013-06-14T07:21:13.997Z</time>
</trkpt>
<trkpt lat="31.7624950" lon="35.1112390">
<ele>637.001465</ele>
<time>2013-06-14T07:21:27.000Z</time>
</trkpt>
<trkpt lat="31.7623940" lon="35.1114250">
<ele>638.464539</ele>
<time>2013-06-14T07:21:40.003Z</time>
</trkpt>
<trkpt lat="31.7623290" lon="35.1116030">
<ele>641.329712</ele>
<time>2013-06-14T07:21:55.996Z</time>
</trkpt>
<trkpt lat="31.7623220" lon="35.1116310">
<ele>641.329712</ele>
<time>2013-06-14T07:21:58.000Z</time>
</trkpt>
<trkpt lat="31.7622970" lon="35.1117830">
<ele>643.249878</ele>
<time>2013-06-14T07:22:10.001Z</time>
</trkpt>
<trkpt lat="31.7622990" lon="35.1117910">
<ele>643.249878</ele>
<time>2013-06-14T07:22:11.004Z</time>
</trkpt>
<trkpt lat="31.7622970" lon="35.1120970">
<ele>644.712952</ele>
<time>2013-06-14T07:22:26.003Z</time>
</trkpt>
<trkpt lat="31.7623290" lon="35.1124880">
<ele>645.170166</ele>
<time>2013-06-14T07:22:42.997Z</time>
</trkpt>
<trkpt lat="31.7624900" lon="35.1128880">
<ele>646.145508</ele>
<time>2013-06-14T07:22:58.999Z</time>
</trkpt>
<trkpt lat="31.7627260" lon="35.1130330">
<ele>648.553467</ele>
<time>2013-06-14T07:23:15.000Z</time>
</trkpt>
<trkpt lat="31.7628720" lon="35.1131010">
<ele>650.473694</ele>
<time>2013-06-14T07:23:28.003Z</time>
</trkpt>
<trkpt lat="31.7629410" lon="35.1131140">
<ele>651.418518</ele>
<time>2013-06-14T07:23:33.999Z</time>
</trkpt>
<trkpt lat="31.7631030" lon="35.1131880">
<ele>652.881592</ele>
<time>2013-06-14T07:23:48.998Z</time>
</trkpt>
<trkpt lat="31.7633120" lon="35.1132520">
<ele>655.289490</ele>
<time>2013-06-14T07:24:07.998Z</time>
</trkpt>
<trkpt lat="31.7633910" lon="35.1132480">
<ele>656.234375</ele>
<time>2013-06-14T07:24:14.996Z</time>
</trkpt>
<trkpt lat="31.7634270" lon="35.1132500">
<ele>656.234375</ele>
<time>2013-06-14T07:24:18.003Z</time>
</trkpt>
<trkpt lat="31.7635080" lon="35.1132460">
<ele>656.722107</ele>
<time>2013-06-14T07:24:25.001Z</time>
</trkpt>
<trkpt lat="31.7636840" lon="35.1131820">
<ele>660.074890</ele>
<time>2013-06-14T07:24:41.996Z</time>
</trkpt>
<trkpt lat="31.7637320" lon="35.1131640">
<ele>660.562561</ele>
<time>2013-06-14T07:24:45.996Z</time>
</trkpt>
<trkpt lat="31.7637970" lon="35.1131220">
<ele>661.050232</ele>
<time>2013-06-14T07:24:50.999Z</time>
</trkpt>
<trkpt lat="31.7638480" lon="35.1130670">
<ele>661.050232</ele>
<time>2013-06-14T07:24:56.002Z</time>
</trkpt>
<trkpt lat="31.7638730" lon="35.1130530">
<ele>661.507446</ele>
<time>2013-06-14T07:24:57.997Z</time>
</trkpt>
<trkpt lat="31.7638980" lon="35.1130530">
<ele>661.995117</ele>
<time>2013-06-14T07:25:00.002Z</time>
</trkpt>
<trkpt lat="31.7639190" lon="35.1130510">
<ele>662.482788</ele>
<time>2013-06-14T07:25:01.998Z</time>
</trkpt>
<trkpt lat="31.7639400" lon="35.1130400">
<ele>662.482788</ele>
<time>2013-06-14T07:25:04.002Z</time>
</trkpt>
<trkpt lat="31.7639550" lon="35.1130250">
<ele>662.970520</ele>
<time>2013-06-14T07:25:05.998Z</time>
</trkpt>
<trkpt lat="31.7639740" lon="35.1130080">
<ele>663.458130</ele>
<time>2013-06-14T07:25:08.003Z</time>
</trkpt>
<trkpt lat="31.7639880" lon="35.1129580">
<ele>663.458130</ele>
<time>2013-06-14T07:25:12.003Z</time>
</trkpt>
<trkpt lat="31.7639820" lon="35.1129450">
<ele>663.458130</ele>
<time>2013-06-14T07:25:12.996Z</time>
</trkpt>
<trkpt lat="31.7639490" lon="35.1129350">
<ele>663.915344</ele>
<time>2013-06-14T07:25:16.003Z</time>
</trkpt>
<trkpt lat="31.7638980" lon="35.1129390">
<ele>664.403076</ele>
<time>2013-06-14T07:25:20.004Z</time>
</trkpt>
<trkpt lat="31.7637440" lon="35.1129230">
<ele>665.378418</ele>
<time>2013-06-14T07:25:31.996Z</time>
</trkpt>
<trkpt lat="31.7637170" lon="35.1129100">
<ele>665.835571</ele>
<time>2013-06-14T07:25:34.000Z</time>
</trkpt>
<trkpt lat="31.7636300" lon="35.1128380">
<ele>667.298645</ele>
<time>2013-06-14T07:25:43.003Z</time>
</trkpt>
<trkpt lat="31.7635120" lon="35.1127450">
<ele>669.218933</ele>
<time>2013-06-14T07:25:55.998Z</time>
</trkpt>
<trkpt lat="31.7635020" lon="35.1127310">
<ele>669.218933</ele>
<time>2013-06-14T07:25:57.000Z</time>
</trkpt>
<trkpt lat="31.7634580" lon="35.1125910">
<ele>670.651428</ele>
<time>2013-06-14T07:26:06.003Z</time>
</trkpt>
<trkpt lat="31.7634360" lon="35.1123060">
<ele>673.059326</ele>
<time>2013-06-14T07:26:26.998Z</time>
</trkpt>
<trkpt lat="31.7634250" lon="35.1122060">
<ele>673.547058</ele>
<time>2013-06-14T07:26:34.999Z</time>
</trkpt>
<trkpt lat="31.7634000" lon="35.1119870">
<ele>674.491882</ele>
<time>2013-06-14T07:26:49.998Z</time>
</trkpt>
<trkpt lat="31.7633800" lon="35.1117540">
<ele>676.412170</ele>
<time>2013-06-14T07:27:04.997Z</time>
</trkpt>
<trkpt lat="31.7634080" lon="35.1115670">
<ele>677.875183</ele>
<time>2013-06-14T07:27:16.998Z</time>
</trkpt>
<trkpt lat="31.7634770" lon="35.1113390">
<ele>678.362915</ele>
<time>2013-06-14T07:27:31.003Z</time>
</trkpt>
<trkpt lat="31.7635370" lon="35.1111610">
<ele>678.362915</ele>
<time>2013-06-14T07:27:41.000Z</time>
</trkpt>
<trkpt lat="31.7636420" lon="35.1109410">
<ele>679.307739</ele>
<time>2013-06-14T07:27:54.003Z</time>
</trkpt>
<trkpt lat="31.7637460" lon="35.1106100">
<ele>680.283081</ele>
<time>2013-06-14T07:28:10.004Z</time>
</trkpt>
<trkpt lat="31.7638250" lon="35.1102630">
<ele>681.228027</ele>
<time>2013-06-14T07:28:25.997Z</time>
</trkpt>
<trkpt lat="31.7638880" lon="35.1099960">
<ele>681.715698</ele>
<time>2013-06-14T07:28:37.998Z</time>
</trkpt>
<trkpt lat="31.7639550" lon="35.1096530">
<ele>682.203369</ele>
<time>2013-06-14T07:28:52.997Z</time>
</trkpt>
<trkpt lat="31.7640430" lon="35.1093640">
<ele>682.203369</ele>
<time>2013-06-14T07:29:06.000Z</time>
</trkpt>
<trkpt lat="31.7641590" lon="35.1090890">
<ele>684.123596</ele>
<time>2013-06-14T07:29:20.999Z</time>
</trkpt>
<trkpt lat="31.7641920" lon="35.1090530">
<ele>684.611328</ele>
<time>2013-06-14T07:29:23.997Z</time>
</trkpt>
<trkpt lat="31.7642150" lon="35.1090250">
<ele>684.611328</ele>
<time>2013-06-14T07:29:26.002Z</time>
</trkpt>
<trkpt lat="31.7643250" lon="35.1088800">
<ele>685.556152</ele>
<time>2013-06-14T07:29:35.998Z</time>
</trkpt>
<trkpt lat="31.7643760" lon="35.1088370">
<ele>686.043884</ele>
<time>2013-06-14T07:29:39.998Z</time>
</trkpt>
<trkpt lat="31.7645490" lon="35.1087170">
<ele>687.476379</ele>
<time>2013-06-14T07:29:54.004Z</time>
</trkpt>
<trkpt lat="31.7646970" lon="35.1086920">
<ele>690.372009</ele>
<time>2013-06-14T07:30:09.996Z</time>
</trkpt>
<trkpt lat="31.7647260" lon="35.1086920">
<ele>690.829224</ele>
<time>2013-06-14T07:30:13.003Z</time>
</trkpt>
<trkpt lat="31.7648520" lon="35.1086270">
<ele>692.779907</ele>
<time>2013-06-14T07:30:28.002Z</time>
</trkpt>
<trkpt lat="31.7649330" lon="35.1085880">
<ele>694.700134</ele>
<time>2013-06-14T07:30:36.996Z</time>
</trkpt>
<trkpt lat="31.7650260" lon="35.1085080">
<ele>695.645081</ele>
<time>2013-06-14T07:30:48.004Z</time>
</trkpt>
<trkpt lat="31.7650890" lon="35.1084690">
<ele>696.132690</ele>
<time>2013-06-14T07:30:55.002Z</time>
</trkpt>
<trkpt lat="31.7651180" lon="35.1084450">
<ele>698.052917</ele>
<time>2013-06-14T07:30:59.003Z</time>
</trkpt>
<trkpt lat="31.7651410" lon="35.1084310">
<ele>698.052917</ele>
<time>2013-06-14T07:31:02.001Z</time>
</trkpt>
<trkpt lat="31.7652050" lon="35.1084050">
<ele>699.485474</ele>
<time>2013-06-14T07:31:08.999Z</time>
</trkpt>
<trkpt lat="31.7655730" lon="35.1082050">
<ele>703.325989</ele>
<time>2013-06-14T07:31:46.004Z</time>
</trkpt>
<trkpt lat="31.7658040" lon="35.1080010">
<ele>703.325989</ele>
<time>2013-06-14T07:32:00.001Z</time>
</trkpt>
<trkpt lat="31.7659320" lon="35.1078890">
<ele>703.813721</ele>
<time>2013-06-14T07:32:08.002Z</time>
</trkpt>
<trkpt lat="31.7659580" lon="35.1078800">
<ele>704.301331</ele>
<time>2013-06-14T07:32:09.997Z</time>
</trkpt>
<trkpt lat="31.7662450" lon="35.1076730">
<ele>703.325989</ele>
<time>2013-06-14T07:32:24.996Z</time>
</trkpt>
<trkpt lat="31.7665940" lon="35.1075680">
<ele>703.813721</ele>
<time>2013-06-14T07:32:39.002Z</time>
</trkpt>
<trkpt lat="31.7668800" lon="35.1075730">
<ele>705.764404</ele>
<time>2013-06-14T07:32:52.999Z</time>
</trkpt>
<trkpt lat="31.7671960" lon="35.1077180">
<ele>705.246277</ele>
<time>2013-06-14T07:33:07.004Z</time>
</trkpt>
<trkpt lat="31.7674830" lon="35.1079530">
<ele>706.709290</ele>
<time>2013-06-14T07:33:23.999Z</time>
</trkpt>
<trkpt lat="31.7676700" lon="35.1081360">
<ele>708.629517</ele>
<time>2013-06-14T07:33:38.998Z</time>
</trkpt>
<trkpt lat="31.7677770" lon="35.1082310">
<ele>710.062134</ele>
<time>2013-06-14T07:33:50.999Z</time>
</trkpt>
<trkpt lat="31.7678850" lon="35.1083420">
<ele>712.469971</ele>
<time>2013-06-14T07:34:05.998Z</time>
</trkpt>
<trkpt lat="31.7679410" lon="35.1083790">
<ele>713.445374</ele>
<time>2013-06-14T07:34:12.996Z</time>
</trkpt>
<trkpt lat="31.7679550" lon="35.1083940">
<ele>713.445374</ele>
<time>2013-06-14T07:34:15.001Z</time>
</trkpt>
<trkpt lat="31.7680900" lon="35.1084860">
<ele>715.365601</ele>
<time>2013-06-14T07:34:31.002Z</time>
</trkpt>
<trkpt lat="31.7681740" lon="35.1085340">
<ele>717.285828</ele>
<time>2013-06-14T07:34:42.001Z</time>
</trkpt>
<trkpt lat="31.7682560" lon="35.1085920">
<ele>718.718384</ele>
<time>2013-06-14T07:34:54.002Z</time>
</trkpt>
<trkpt lat="31.7683620" lon="35.1086850">
<ele>720.150940</ele>
<time>2013-06-14T07:35:10.003Z</time>
</trkpt>
<trkpt lat="31.7684770" lon="35.1087970">
<ele>723.046570</ele>
<time>2013-06-14T07:35:26.998Z</time>
</trkpt>
<trkpt lat="31.7685380" lon="35.1088530">
<ele>724.479065</ele>
<time>2013-06-14T07:35:36.001Z</time>
</trkpt>
<trkpt lat="31.7686110" lon="35.1089740">
<ele>726.887085</ele>
<time>2013-06-14T07:35:49.998Z</time>
</trkpt>
<trkpt lat="31.7686940" lon="35.1090710">
<ele>729.294922</ele>
<time>2013-06-14T07:36:04.997Z</time>
</trkpt>
<trkpt lat="31.7687540" lon="35.1091880">
<ele>731.702881</ele>
<time>2013-06-14T07:36:19.002Z</time>
</trkpt>
<trkpt lat="31.7688090" lon="35.1092920">
<ele>733.623108</ele>
<time>2013-06-14T07:36:31.003Z</time>
</trkpt>
<trkpt lat="31.7688710" lon="35.1094310">
<ele>734.567993</ele>
<time>2013-06-14T07:36:43.998Z</time>
</trkpt>
<trkpt lat="31.7689060" lon="35.1094600">
<ele>735.055725</ele>
<time>2013-06-14T07:36:47.998Z</time>
</trkpt>
<trkpt lat="31.7690160" lon="35.1095780">
<ele>736.518677</ele>
<time>2013-06-14T07:37:02.997Z</time>
</trkpt>
<trkpt lat="31.7690420" lon="35.1095880">
<ele>736.518677</ele>
<time>2013-06-14T07:37:05.002Z</time>
</trkpt>
<trkpt lat="31.7691680" lon="35.1096100">
<ele>736.975891</ele>
<time>2013-06-14T07:37:13.996Z</time>
</trkpt>
<trkpt lat="31.7692490" lon="35.1096500">
<ele>738.438965</ele>
<time>2013-06-14T07:37:21.996Z</time>
</trkpt>
<trkpt lat="31.7693240" lon="35.1096580">
<ele>739.383850</ele>
<time>2013-06-14T07:37:29.004Z</time>
</trkpt>
<trkpt lat="31.7694930" lon="35.1096860">
<ele>741.791748</ele>
<time>2013-06-14T07:37:44.996Z</time>
</trkpt>
<trkpt lat="31.7695430" lon="35.1096860">
<ele>741.791748</ele>
<time>2013-06-14T07:37:48.996Z</time>
</trkpt>
<trkpt lat="31.7696610" lon="35.1096240">
<ele>741.791748</ele>
<time>2013-06-14T07:37:59.002Z</time>
</trkpt>
<trkpt lat="31.7698400" lon="35.1094920">
<ele>743.711975</ele>
<time>2013-06-14T07:38:14.001Z</time>
</trkpt>
<trkpt lat="31.7699060" lon="35.1094490">
<ele>744.199707</ele>
<time>2013-06-14T07:38:19.997Z</time>
</trkpt>
<trkpt lat="31.7700590" lon="35.1093660">
<ele>746.119873</ele>
<time>2013-06-14T07:38:34.002Z</time>
</trkpt>
<trkpt lat="31.7701120" lon="35.1093310">
<ele>746.119873</ele>
<time>2013-06-14T07:38:38.003Z</time>
</trkpt>
<trkpt lat="31.7704310" lon="35.1092130">
<ele>748.040161</ele>
<time>2013-06-14T07:39:02.998Z</time>
</trkpt>
<trkpt lat="31.7704800" lon="35.1092080">
<ele>748.040161</ele>
<time>2013-06-14T07:39:36.996Z</time>
</trkpt>
<trkpt lat="31.7707680" lon="35.1090920">
<ele>750.448120</ele>
<time>2013-06-14T07:39:59.996Z</time>
</trkpt>
<trkpt lat="31.7708610" lon="35.1091170">
<ele>750.935730</ele>
<time>2013-06-14T07:40:07.003Z</time>
</trkpt>
<trkpt lat="31.7708650" lon="35.1091510">
<ele>751.423462</ele>
<time>2013-06-14T07:40:08.999Z</time>
</trkpt>
<trkpt lat="31.7708520" lon="35.1091820">
<ele>751.880676</ele>
<time>2013-06-14T07:40:11.004Z</time>
</trkpt>
<trkpt lat="31.7708370" lon="35.1092110">
<ele>751.880676</ele>
<time>2013-06-14T07:40:12.999Z</time>
</trkpt>
<trkpt lat="31.7707170" lon="35.1094440">
<ele>752.856018</ele>
<time>2013-06-14T07:40:29.001Z</time>
</trkpt>
<trkpt lat="31.7706290" lon="35.1096300">
<ele>754.288574</ele>
<time>2013-06-14T07:40:42.997Z</time>
</trkpt>
<trkpt lat="31.7705610" lon="35.1098350">
<ele>756.696533</ele>
<time>2013-06-14T07:40:57.003Z</time>
</trkpt>
<trkpt lat="31.7705510" lon="35.1098780">
<ele>756.696533</ele>
<time>2013-06-14T07:41:00.001Z</time>
</trkpt>
<trkpt lat="31.7704480" lon="35.1100890">
<ele>758.129028</ele>
<time>2013-06-14T07:41:16.996Z</time>
</trkpt>
<trkpt lat="31.7702930" lon="35.1102640">
<ele>760.049316</ele>
<time>2013-06-14T07:41:35.002Z</time>
</trkpt>
<trkpt lat="31.7701480" lon="35.1104250">
<ele>761.512268</ele>
<time>2013-06-14T07:41:51.003Z</time>
</trkpt>
<trkpt lat="31.7699980" lon="35.1105780">
<ele>763.432556</ele>
<time>2013-06-14T07:42:06.002Z</time>
</trkpt>
<trkpt lat="31.7699150" lon="35.1106170">
<ele>763.889771</ele>
<time>2013-06-14T07:42:13.000Z</time>
</trkpt>
<trkpt lat="31.7698930" lon="35.1106250">
<ele>763.889771</ele>
<time>2013-06-14T07:42:14.996Z</time>
</trkpt>
<trkpt lat="31.7698720" lon="35.1106340">
<ele>764.377441</ele>
<time>2013-06-14T07:42:17.001Z</time>
</trkpt>
<trkpt lat="31.7698520" lon="35.1106490">
<ele>764.377441</ele>
<time>2013-06-14T07:42:18.996Z</time>
</trkpt>
<trkpt lat="31.7698250" lon="35.1106580">
<ele>764.865112</ele>
<time>2013-06-14T07:42:21.001Z</time>
</trkpt>
<trkpt lat="31.7697510" lon="35.1107000">
<ele>764.865112</ele>
<time>2013-06-14T07:42:26.997Z</time>
</trkpt>
<trkpt lat="31.7697450" lon="35.1107140">
<ele>765.352783</ele>
<time>2013-06-14T07:42:27.999Z</time>
</trkpt>
<trkpt lat="31.7697320" lon="35.1108130">
<ele>765.840515</ele>
<time>2013-06-14T07:42:34.004Z</time>
</trkpt>
<trkpt lat="31.7697450" lon="35.1108340">
<ele>766.297729</ele>
<time>2013-06-14T07:42:36.000Z</time>
</trkpt>
<trkpt lat="31.7697630" lon="35.1108490">
<ele>766.297729</ele>
<time>2013-06-14T07:42:37.996Z</time>
</trkpt>
<trkpt lat="31.7697870" lon="35.1108640">
<ele>766.785339</ele>
<time>2013-06-14T07:42:40.000Z</time>
</trkpt>
<trkpt lat="31.7698010" lon="35.1108800">
<ele>767.273071</ele>
<time>2013-06-14T07:42:41.996Z</time>
</trkpt>
<trkpt lat="31.7698360" lon="35.1109100">
<ele>767.760681</ele>
<time>2013-06-14T07:42:45.996Z</time>
</trkpt>
<trkpt lat="31.7699510" lon="35.1109660">
<ele>769.193298</ele>
<time>2013-06-14T07:42:57.004Z</time>
</trkpt>
<trkpt lat="31.7699720" lon="35.1109790">
<ele>769.680969</ele>
<time>2013-06-14T07:42:59.000Z</time>
</trkpt>
<trkpt lat="31.7701190" lon="35.1110200">
<ele>770.625854</ele>
<time>2013-06-14T07:43:12.003Z</time>
</trkpt>
<trkpt lat="31.7701430" lon="35.1110240">
<ele>770.625854</ele>
<time>2013-06-14T07:43:13.999Z</time>
</trkpt>
<trkpt lat="31.7702090" lon="35.1110390">
<ele>772.088928</ele>
<time>2013-06-14T07:43:20.004Z</time>
</trkpt>
<trkpt lat="31.7702290" lon="35.1110500">
<ele>772.088928</ele>
<time>2013-06-14T07:43:21.999Z</time>
</trkpt>
<trkpt lat="31.7703150" lon="35.1110930">
<ele>773.033752</ele>
<time>2013-06-14T07:43:30.000Z</time>
</trkpt>
<trkpt lat="31.7703810" lon="35.1111350">
<ele>773.033752</ele>
<time>2013-06-14T07:43:35.996Z</time>
</trkpt>
<trkpt lat="31.7704180" lon="35.1111660">
<ele>773.033752</ele>
<time>2013-06-14T07:43:39.996Z</time>
</trkpt>
<trkpt lat="31.7704280" lon="35.1111770">
<ele>773.033752</ele>
<time>2013-06-14T07:43:40.999Z</time>
</trkpt>
<trkpt lat="31.7705070" lon="35.1113140">
<ele>774.466309</ele>
<time>2013-06-14T07:43:53.000Z</time>
</trkpt>
<trkpt lat="31.7705540" lon="35.1113680">
<ele>774.953979</ele>
<time>2013-06-14T07:43:58.996Z</time>
</trkpt>
<trkpt lat="31.7705920" lon="35.1114350">
<ele>775.929321</ele>
<time>2013-06-14T07:44:05.001Z</time>
</trkpt>
<trkpt lat="31.7706840" lon="35.1116520">
<ele>778.306824</ele>
<time>2013-06-14T07:44:22.998Z</time>
</trkpt>
<trkpt lat="31.7707360" lon="35.1117560">
<ele>780.257507</ele>
<time>2013-06-14T07:44:33.003Z</time>
</trkpt>
<trkpt lat="31.7707750" lon="35.1118720">
<ele>781.690125</ele>
<time>2013-06-14T07:44:42.999Z</time>
</trkpt>
<trkpt lat="31.7708250" lon="35.1121550">
<ele>783.122681</ele>
<time>2013-06-14T07:45:04.003Z</time>
</trkpt>
<trkpt lat="31.7708820" lon="35.1123660">
<ele>784.098022</ele>
<time>2013-06-14T07:45:19.002Z</time>
</trkpt>
<trkpt lat="31.7709520" lon="35.1126470">
<ele>785.042908</ele>
<time>2013-06-14T07:45:34.001Z</time>
</trkpt>
<trkpt lat="31.7710180" lon="35.1129860">
<ele>786.018250</ele>
<time>2013-06-14T07:45:51.998Z</time>
</trkpt>
<trkpt lat="31.7710720" lon="35.1131950">
<ele>786.018250</ele>
<time>2013-06-14T07:46:02.004Z</time>
</trkpt>
<trkpt lat="31.7712290" lon="35.1135120">
<ele>786.018250</ele>
<time>2013-06-14T07:46:17.003Z</time>
</trkpt>
<trkpt lat="31.7714650" lon="35.1139760">
<ele>786.018250</ele>
<time>2013-06-14T07:46:30.999Z</time>
</trkpt>
<trkpt lat="31.7716770" lon="35.1145460">
<ele>786.018250</ele>
<time>2013-06-14T07:46:47.001Z</time>
</trkpt>
<trkpt lat="31.7717440" lon="35.1149210">
<ele>785.530518</ele>
<time>2013-06-14T07:46:57.999Z</time>
</trkpt>
<trkpt lat="31.7718530" lon="35.1154000">
<ele>786.018250</ele>
<time>2013-06-14T07:47:11.996Z</time>
</trkpt>
<trkpt lat="31.7718980" lon="35.1156690">
<ele>784.555176</ele>
<time>2013-06-14T07:47:18.001Z</time>
</trkpt>
<trkpt lat="31.7719140" lon="35.1157220">
<ele>784.555176</ele>
<time>2013-06-14T07:47:19.003Z</time>
</trkpt>
<trkpt lat="31.7719640" lon="35.1158210">
<ele>784.555176</ele>
<time>2013-06-14T07:47:20.999Z</time>
</trkpt>
<trkpt lat="31.7719940" lon="35.1158630">
<ele>784.098022</ele>
<time>2013-06-14T07:47:22.001Z</time>
</trkpt>
<trkpt lat="31.7720250" lon="35.1159040">
<ele>784.555176</ele>
<time>2013-06-14T07:47:23.004Z</time>
</trkpt>
<trkpt lat="31.7720500" lon="35.1159470">
<ele>784.098022</ele>
<time>2013-06-14T07:47:23.997Z</time>
</trkpt>
<trkpt lat="31.7720710" lon="35.1159920">
<ele>783.610291</ele>
<time>2013-06-14T07:47:24.999Z</time>
</trkpt>
<trkpt lat="31.7720870" lon="35.1160390">
<ele>784.098022</ele>
<time>2013-06-14T07:47:26.002Z</time>
</trkpt>
<trkpt lat="31.7720990" lon="35.1160900">
<ele>783.122681</ele>
<time>2013-06-14T07:47:27.004Z</time>
</trkpt>
<trkpt lat="31.7721140" lon="35.1161450">
<ele>783.122681</ele>
<time>2013-06-14T07:47:27.997Z</time>
</trkpt>
<trkpt lat="31.7721350" lon="35.1162000">
<ele>783.122681</ele>
<time>2013-06-14T07:47:29.000Z</time>
</trkpt>
<trkpt lat="31.7721670" lon="35.1162480">
<ele>782.177734</ele>
<time>2013-06-14T07:47:30.002Z</time>
</trkpt>
<trkpt lat="31.7722120" lon="35.1162830">
<ele>781.690125</ele>
<time>2013-06-14T07:47:31.004Z</time>
</trkpt>
<trkpt lat="31.7722640" lon="35.1163040">
<ele>782.634949</ele>
<time>2013-06-14T07:47:31.998Z</time>
</trkpt>
<trkpt lat="31.7723160" lon="35.1163150">
<ele>782.177734</ele>
<time>2013-06-14T07:47:33.000Z</time>
</trkpt>
<trkpt lat="31.7723630" lon="35.1163200">
<ele>781.202393</ele>
<time>2013-06-14T07:47:34.002Z</time>
</trkpt>
<trkpt lat="31.7724060" lon="35.1163190">
<ele>782.634949</ele>
<time>2013-06-14T07:47:34.996Z</time>
</trkpt>
<trkpt lat="31.7724460" lon="35.1163170">
<ele>782.177734</ele>
<time>2013-06-14T07:47:35.998Z</time>
</trkpt>
<trkpt lat="31.7726720" lon="35.1162750">
<ele>781.202393</ele>
<time>2013-06-14T07:47:46.003Z</time>
</trkpt>
<trkpt lat="31.7727000" lon="35.1162690">
<ele>783.122681</ele>
<time>2013-06-14T07:56:27.997Z</time>
</trkpt>
<trkpt lat="31.7727420" lon="35.1162860">
<ele>783.122681</ele>
<time>2013-06-14T07:56:30.002Z</time>
</trkpt>
<trkpt lat="31.7728780" lon="35.1165980">
<ele>779.769836</ele>
<time>2013-06-14T07:56:39.998Z</time>
</trkpt>
<trkpt lat="31.7729230" lon="35.1167130">
<ele>778.824951</ele>
<time>2013-06-14T07:56:42.003Z</time>
</trkpt>
<trkpt lat="31.7730600" lon="35.1170110">
<ele>776.874268</ele>
<time>2013-06-14T07:56:50.997Z</time>
</trkpt>
<trkpt lat="31.7732950" lon="35.1173640">
<ele>774.009094</ele>
<time>2013-06-14T07:57:04.000Z</time>
</trkpt>
<trkpt lat="31.7731770" lon="35.1178150">
<ele>771.601196</ele>
<time>2013-06-14T07:57:13.997Z</time>
</trkpt>
<trkpt lat="31.7731540" lon="35.1178630">
<ele>771.601196</ele>
<time>2013-06-14T07:57:14.999Z</time>
</trkpt>
<trkpt lat="31.7730250" lon="35.1182120">
<ele>770.138123</ele>
<time>2013-06-14T07:57:21.997Z</time>
</trkpt>
<trkpt lat="31.7730020" lon="35.1182600">
<ele>770.625854</ele>
<time>2013-06-14T07:57:23.000Z</time>
</trkpt>
<trkpt lat="31.7729740" lon="35.1183050">
<ele>769.680969</ele>
<time>2013-06-14T07:57:24.002Z</time>
</trkpt>
<trkpt lat="31.7729450" lon="35.1183480">
<ele>769.680969</ele>
<time>2013-06-14T07:57:25.004Z</time>
</trkpt>
<trkpt lat="31.7729130" lon="35.1183870">
<ele>768.705627</ele>
<time>2013-06-14T07:57:25.998Z</time>
</trkpt>
<trkpt lat="31.7728790" lon="35.1184170">
<ele>768.217896</ele>
<time>2013-06-14T07:57:27.000Z</time>
</trkpt>
<trkpt lat="31.7728420" lon="35.1184390">
<ele>768.217896</ele>
<time>2013-06-14T07:57:28.002Z</time>
</trkpt>
<trkpt lat="31.7728040" lon="35.1184550">
<ele>768.217896</ele>
<time>2013-06-14T07:57:28.996Z</time>
</trkpt>
<trkpt lat="31.7727630" lon="35.1184640">
<ele>767.760681</ele>
<time>2013-06-14T07:57:29.998Z</time>
</trkpt>
<trkpt lat="31.7727210" lon="35.1184610">
<ele>767.760681</ele>
<time>2013-06-14T07:57:31.000Z</time>
</trkpt>
<trkpt lat="31.7726800" lon="35.1184500">
<ele>767.273071</ele>
<time>2013-06-14T07:57:32.003Z</time>
</trkpt>
<trkpt lat="31.7726390" lon="35.1184360">
<ele>767.273071</ele>
<time>2013-06-14T07:57:32.996Z</time>
</trkpt>
<trkpt lat="31.7722270" lon="35.1182560">
<ele>763.432556</ele>
<time>2013-06-14T07:57:41.999Z</time>
</trkpt>
<trkpt lat="31.7720540" lon="35.1182870">
<ele>762.944885</ele>
<time>2013-06-14T07:57:48.004Z</time>
</trkpt>
<trkpt lat="31.7720660" lon="35.1183540">
<ele>762.944885</ele>
<time>2013-06-14T07:57:50.000Z</time>
</trkpt>
<trkpt lat="31.7720850" lon="35.1183770">
<ele>762.944885</ele>
<time>2013-06-14T07:57:51.002Z</time>
</trkpt>
<trkpt lat="31.7721120" lon="35.1183960">
<ele>762.457214</ele>
<time>2013-06-14T07:57:52.004Z</time>
</trkpt>
<trkpt lat="31.7721410" lon="35.1184190">
<ele>761.969482</ele>
<time>2013-06-14T07:57:52.998Z</time>
</trkpt>
<trkpt lat="31.7721690" lon="35.1184440">
<ele>762.457214</ele>
<time>2013-06-14T07:57:54.000Z</time>
</trkpt>
<trkpt lat="31.7723150" lon="35.1186080">
<ele>760.049316</ele>
<time>2013-06-14T07:57:59.003Z</time>
</trkpt>
<trkpt lat="31.7724660" lon="35.1188040">
<ele>756.696533</ele>
<time>2013-06-14T07:58:03.003Z</time>
</trkpt>
<trkpt lat="31.7726450" lon="35.1190230">
<ele>754.288574</ele>
<time>2013-06-14T07:58:07.003Z</time>
</trkpt>
<trkpt lat="31.7727000" lon="35.1190700">
<ele>753.343689</ele>
<time>2013-06-14T07:58:07.997Z</time>
</trkpt>
<trkpt lat="31.7727620" lon="35.1191050">
<ele>753.343689</ele>
<time>2013-06-14T07:58:08.999Z</time>
</trkpt>
<trkpt lat="31.7728890" lon="35.1191680">
<ele>752.856018</ele>
<time>2013-06-14T07:58:11.004Z</time>
</trkpt>
<trkpt lat="31.7729480" lon="35.1192140">
<ele>752.856018</ele>
<time>2013-06-14T07:58:11.997Z</time>
</trkpt>
<trkpt lat="31.7730050" lon="35.1192700">
<ele>751.880676</ele>
<time>2013-06-14T07:58:12.999Z</time>
</trkpt>
<trkpt lat="31.7730570" lon="35.1193340">
<ele>751.880676</ele>
<time>2013-06-14T07:58:14.002Z</time>
</trkpt>
<trkpt lat="31.7731070" lon="35.1194030">
<ele>751.423462</ele>
<time>2013-06-14T07:58:15.004Z</time>
</trkpt>
<trkpt lat="31.7731540" lon="35.1194740">
<ele>750.935730</ele>
<time>2013-06-14T07:58:15.997Z</time>
</trkpt>
<trkpt lat="31.7735090" lon="35.1200150">
<ele>748.527832</ele>
<time>2013-06-14T07:58:26.003Z</time>
</trkpt>
<trkpt lat="31.7735010" lon="35.1200910">
<ele>748.040161</ele>
<time>2013-06-14T07:58:29.001Z</time>
</trkpt>
<trkpt lat="31.7734880" lon="35.1201100">
<ele>748.040161</ele>
<time>2013-06-14T07:58:30.003Z</time>
</trkpt>
<trkpt lat="31.7734750" lon="35.1201270">
<ele>748.040161</ele>
<time>2013-06-14T07:58:30.996Z</time>
</trkpt>
<trkpt lat="31.7734580" lon="35.1201360">
<ele>747.552490</ele>
<time>2013-06-14T07:58:31.999Z</time>
</trkpt>
<trkpt lat="31.7734390" lon="35.1201410">
<ele>748.040161</ele>
<time>2013-06-14T07:58:33.001Z</time>
</trkpt>
<trkpt lat="31.7733050" lon="35.1201500">
<ele>747.064819</ele>
<time>2013-06-14T07:58:41.002Z</time>
</trkpt>
<trkpt lat="31.7732650" lon="35.1201610">
<ele>746.607605</ele>
<time>2013-06-14T07:58:42.997Z</time>
</trkpt>
<trkpt lat="31.7732050" lon="35.1201740">
<ele>746.119873</ele>
<time>2013-06-14T07:58:45.002Z</time>
</trkpt>
<trkpt lat="31.7731800" lon="35.1201990">
<ele>745.632263</ele>
<time>2013-06-14T07:58:46.004Z</time>
</trkpt>
<trkpt lat="31.7731640" lon="35.1202380">
<ele>745.632263</ele>
<time>2013-06-14T07:58:46.998Z</time>
</trkpt>
<trkpt lat="31.7731600" lon="35.1202920">
<ele>745.632263</ele>
<time>2013-06-14T07:58:48.000Z</time>
</trkpt>
<trkpt lat="31.7731660" lon="35.1203540">
<ele>744.687317</ele>
<time>2013-06-14T07:58:49.002Z</time>
</trkpt>
<trkpt lat="31.7731770" lon="35.1204210">
<ele>744.687317</ele>
<time>2013-06-14T07:58:49.996Z</time>
</trkpt>
<trkpt lat="31.7731950" lon="35.1204910">
<ele>744.199707</ele>
<time>2013-06-14T07:58:50.998Z</time>
</trkpt>
<trkpt lat="31.7732170" lon="35.1205620">
<ele>744.199707</ele>
<time>2013-06-14T07:58:52.000Z</time>
</trkpt>
<trkpt lat="31.7732440" lon="35.1206350">
<ele>743.254822</ele>
<time>2013-06-14T07:58:53.003Z</time>
</trkpt>
<trkpt lat="31.7732740" lon="35.1207090">
<ele>742.767090</ele>
<time>2013-06-14T07:58:53.996Z</time>
</trkpt>
<trkpt lat="31.7736420" lon="35.1216660">
<ele>740.816406</ele>
<time>2013-06-14T07:59:06.999Z</time>
</trkpt>
<trkpt lat="31.7737160" lon="35.1219220">
<ele>740.816406</ele>
<time>2013-06-14T07:59:11.000Z</time>
</trkpt>
<trkpt lat="31.7737460" lon="35.1227030">
<ele>739.871460</ele>
<time>2013-06-14T07:59:24.003Z</time>
</trkpt>
<trkpt lat="31.7737310" lon="35.1227710">
<ele>739.383850</ele>
<time>2013-06-14T07:59:24.996Z</time>
</trkpt>
<trkpt lat="31.7737100" lon="35.1228430">
<ele>739.383850</ele>
<time>2013-06-14T07:59:25.999Z</time>
</trkpt>
<trkpt lat="31.7736110" lon="35.1232000">
<ele>736.031067</ele>
<time>2013-06-14T07:59:29.999Z</time>
</trkpt>
<trkpt lat="31.7735960" lon="35.1233100">
<ele>735.055725</ele>
<time>2013-06-14T07:59:31.001Z</time>
</trkpt>
<trkpt lat="31.7735900" lon="35.1234270">
<ele>734.567993</ele>
<time>2013-06-14T07:59:32.004Z</time>
</trkpt>
<trkpt lat="31.7735910" lon="35.1236470">
<ele>733.623108</ele>
<time>2013-06-14T07:59:33.999Z</time>
</trkpt>
<trkpt lat="31.7735730" lon="35.1241130">
<ele>731.215210</ele>
<time>2013-06-14T07:59:40.004Z</time>
</trkpt>
<trkpt lat="31.7735750" lon="35.1241830">
<ele>730.270264</ele>
<time>2013-06-14T07:59:40.998Z</time>
</trkpt>
<trkpt lat="31.7735850" lon="35.1242580">
<ele>730.270264</ele>
<time>2013-06-14T07:59:42.000Z</time>
</trkpt>
<trkpt lat="31.7736070" lon="35.1243370">
<ele>729.782654</ele>
<time>2013-06-14T07:59:43.002Z</time>
</trkpt>
<trkpt lat="31.7736380" lon="35.1244160">
<ele>729.294922</ele>
<time>2013-06-14T07:59:43.996Z</time>
</trkpt>
<trkpt lat="31.7736790" lon="35.1244960">
<ele>728.350098</ele>
<time>2013-06-14T07:59:44.998Z</time>
</trkpt>
<trkpt lat="31.7737330" lon="35.1245700">
<ele>726.887085</ele>
<time>2013-06-14T07:59:46.000Z</time>
</trkpt>
<trkpt lat="31.7738010" lon="35.1246380">
<ele>726.399353</ele>
<time>2013-06-14T07:59:47.003Z</time>
</trkpt>
<trkpt lat="31.7738780" lon="35.1246990">
<ele>725.454529</ele>
<time>2013-06-14T07:59:47.996Z</time>
</trkpt>
<trkpt lat="31.7739600" lon="35.1247560">
<ele>724.966797</ele>
<time>2013-06-14T07:59:48.998Z</time>
</trkpt>
<trkpt lat="31.7743090" lon="35.1249590">
<ele>722.101685</ele>
<time>2013-06-14T07:59:52.999Z</time>
</trkpt>
<trkpt lat="31.7747620" lon="35.1252160">
<ele>718.230713</ele>
<time>2013-06-14T07:59:58.001Z</time>
</trkpt>
<trkpt lat="31.7750940" lon="35.1254060">
<ele>714.877869</ele>
<time>2013-06-14T08:00:02.002Z</time>
</trkpt>
<trkpt lat="31.7753570" lon="35.1255560">
<ele>711.982300</ele>
<time>2013-06-14T08:00:06.002Z</time>
</trkpt>
<trkpt lat="31.7755570" lon="35.1256660">
<ele>709.604919</ele>
<time>2013-06-14T08:00:10.002Z</time>
</trkpt>
<trkpt lat="31.7756820" lon="35.1257480">
<ele>708.141846</ele>
<time>2013-06-14T08:00:13.000Z</time>
</trkpt>
<trkpt lat="31.7757150" lon="35.1257810">
<ele>707.684631</ele>
<time>2013-06-14T08:00:14.003Z</time>
</trkpt>
<trkpt lat="31.7757420" lon="35.1258270">
<ele>707.196960</ele>
<time>2013-06-14T08:00:14.996Z</time>
</trkpt>
<trkpt lat="31.7757570" lon="35.1258860">
<ele>706.709290</ele>
<time>2013-06-14T08:00:15.998Z</time>
</trkpt>
<trkpt lat="31.7757550" lon="35.1259490">
<ele>706.709290</ele>
<time>2013-06-14T08:00:17.001Z</time>
</trkpt>
<trkpt lat="31.7757400" lon="35.1260090">
<ele>706.709290</ele>
<time>2013-06-14T08:00:18.003Z</time>
</trkpt>
<trkpt lat="31.7757100" lon="35.1260620">
<ele>706.709290</ele>
<time>2013-06-14T08:00:18.996Z</time>
</trkpt>
<trkpt lat="31.7756780" lon="35.1261120">
<ele>707.196960</ele>
<time>2013-06-14T08:00:19.999Z</time>
</trkpt>
<trkpt lat="31.7756550" lon="35.1261630">
<ele>707.196960</ele>
<time>2013-06-14T08:00:21.001Z</time>
</trkpt>
<trkpt lat="31.7756370" lon="35.1262130">
<ele>707.196960</ele>
<time>2013-06-14T08:00:22.003Z</time>
</trkpt>
<trkpt lat="31.7756260" lon="35.1262600">
<ele>707.196960</ele>
<time>2013-06-14T08:00:22.997Z</time>
</trkpt>
<trkpt lat="31.7756180" lon="35.1263020">
<ele>707.196960</ele>
<time>2013-06-14T08:00:23.999Z</time>
</trkpt>
<trkpt lat="31.7756100" lon="35.1263410">
<ele>707.196960</ele>
<time>2013-06-14T08:00:25.001Z</time>
</trkpt>
<trkpt lat="31.7756020" lon="35.1263750">
<ele>708.141846</ele>
<time>2013-06-14T08:00:26.004Z</time>
</trkpt>
<trkpt lat="31.7756000" lon="35.1265200">
<ele>708.141846</ele>
<time>2013-06-14T08:04:44.996Z</time>
</trkpt>
</trkseg>
</trk>
</gpx>
